Home > Products > Valid Products > TAF

000
FTUS45 KBOU 031720
TAFBJC
TAF
KBJC 031720Z 0318/0418 VRB04KT P6SM SCT080 OVC150
     FM032000 15012G18KT P6SM VCTS SCT070CB BKN100 OVC150
      TEMPO 0321/0324 VRB20G35KT 5SM TSRA BKN060CB OVC090
     FM040000 30013G18KT P6SM VCTS SCT080CB BKN120
      TEMPO 0400/0403 27020G30KT P6SM -TSRA BKN080CB
     FM040500 26012KT P6SM FEW130 SCT200
     FM041600 25010KT P6SM FEW080 FEW110=



000
FTUS45 KBOU 031720
TAFAPA
TAF
KAPA 031720Z 0318/0418 30008KT P6SM FEW080 BKN150
     FM032000 15015G25KT P6SM VCTS SCT080CB BKN100 OVC150
      TEMPO 0321/0324 VRB20G35KT 5SM -TSRA BKN070CB
     FM040000 22012KT P6SM VCTS BKN080CB BKN120
      TEMPO 0400/0404 VRB20G35KT -TSRA BKN070CB
     FM040500 19009KT P6SM FEW090 SCT120 BKN180
     FM040900 20010KT P6SM FEW110
     FM041700 26008KT P6SM FEW080 FEW110=



000
FTUS45 KBOU 031720
TAFAPA
TAF
KAPA 031720Z 0318/0418 30008KT P6SM FEW080 BKN150
     FM032000 15015G25KT P6SM VCTS SCT080CB BKN100 OVC150
      TEMPO 0321/0324 VRB20G35KT 5SM -TSRA BKN070CB
     FM040000 22012KT P6SM VCTS BKN080CB BKN120
      TEMPO 0400/0404 VRB20G35KT -TSRA BKN070CB
     FM040500 19009KT P6SM FEW090 SCT120 BKN180
     FM040900 20010KT P6SM FEW110
     FM041700 26008KT P6SM FEW080 FEW110=



000
FTUS45 KBOU 031720
TAFBJC
TAF
KBJC 031720Z 0318/0418 VRB04KT P6SM SCT080 OVC150
     FM032000 15012G18KT P6SM VCTS SCT070CB BKN100 OVC150
      TEMPO 0321/0324 VRB20G35KT 5SM TSRA BKN060CB OVC090
     FM040000 30013G18KT P6SM VCTS SCT080CB BKN120
      TEMPO 0400/0403 27020G30KT P6SM -TSRA BKN080CB
     FM040500 26012KT P6SM FEW130 SCT200
     FM041600 25010KT P6SM FEW080 FEW110=



000
FTUS45 KBOU 031720
TAFDEN
TAF
KDEN 031720Z 0318/0424 19010KT P6SM FEW110 BKN150
     FM031900 17012G20KT P6SM SCT110 BKN150
     FM032000 14015G25KT P6SM VCTS SCT080CB BKN100 OVC150
      TEMPO 0321/0324 VRB20G35KT -TSRA BKN070CB
     FM040000 22012KT P6SM VCTS BKN080CB BKN120
      TEMPO 0400/0404 VRB20G35KT -TSRA BKN070CB
     FM040500 19009KT P6SM FEW090 SCT120 BKN180
     FM040900 21010KT P6SM FEW110
     FM041700 27009KT P6SM FEW080 FEW110=



000
FTUS45 KBOU 031720
TAFDEN
TAF
KDEN 031720Z 0318/0424 19010KT P6SM FEW110 BKN150
     FM031900 17012G20KT P6SM SCT110 BKN150
     FM032000 14015G25KT P6SM VCTS SCT080CB BKN100 OVC150
      TEMPO 0321/0324 VRB20G35KT -TSRA BKN070CB
     FM040000 22012KT P6SM VCTS BKN080CB BKN120
      TEMPO 0400/0404 VRB20G35KT -TSRA BKN070CB
     FM040500 19009KT P6SM FEW090 SCT120 BKN180
     FM040900 21010KT P6SM FEW110
     FM041700 27009KT P6SM FEW080 FEW110=



000
FTUS45 KBOU 031455 AAA
TAFDEN
TAF AMD
KDEN 031455Z 0315/0418 VRB05KT P6SM FEW100 SCT130 BKN180
     FM031700 17012G20KT P6SM SCT100 BKN130 OVC180
     FM032000 14015G25KT P6SM VCTS SCT080CB BKN100 OVC150
      TEMPO 0321/0401 VRB20G35KT -TSRA BKN070CB
     FM040200 21012KT P6SM VCSH SCT080 BKN120
     FM040500 19009KT P6SM FEW090 SCT120 BKN180
     FM040900 21010KT P6SM FEW110=



000
FTUS45 KBOU 031455 AAA
TAFDEN
TAF AMD
KDEN 031455Z 0315/0418 VRB05KT P6SM FEW100 SCT130 BKN180
     FM031700 17012G20KT P6SM SCT100 BKN130 OVC180
     FM032000 14015G25KT P6SM VCTS SCT080CB BKN100 OVC150
      TEMPO 0321/0401 VRB20G35KT -TSRA BKN070CB
     FM040200 21012KT P6SM VCSH SCT080 BKN120
     FM040500 19009KT P6SM FEW090 SCT120 BKN180
     FM040900 21010KT P6SM FEW110=



000
FTUS45 KBOU 031124
TAFBJC
TAF
KBJC 031124Z 0312/0412 VRB04KT P6SM SCT110 BKN200
     FM031700 14009KT P6SM SCT100 BKN160
     FM032100 15012G20KT P6SM VCTS SCT070CB BKN100 OVC150
      TEMPO 0321/0401 VRB20G35KT 5SM TSRA BKN060CB OVC090
     FM040100 30013G18KT P6SM VCSH SCT080 BKN120
     FM040500 26009KT P6SM FEW130 SCT200=



000
FTUS45 KBOU 031124
TAFAPA
TAF
KAPA 031124Z 0312/0412 19008KT P6SM SCT120 BKN200
     FM031400 23006KT P6SM BKN110 BKN180
     FM031700 17012KT P6SM SCT120 BKN180
     FM032000 15015G25KT P6SM VCTS SCT080CB BKN100 OVC150
      TEMPO 0321/0401 VRB20G35KT 5SM -TSRA BKN070CB
     FM040200 23010KT P6SM VCSH SCT080 BKN120
     FM040500 19009KT P6SM FEW090 SCT120 BKN180
     FM040900 20010KT P6SM FEW110=



000
FTUS45 KBOU 031124
TAFDEN
TAF
KDEN 031124Z 0312/0418 19010KT P6SM SCT120 BKN200
     FM031400 23008KT P6SM SCT110 BKN180
     FM031700 17012G20KT P6SM SCT120 BKN180
     FM032000 14015G25KT P6SM VCTS SCT080CB BKN100 OVC150
      TEMPO 0321/0401 VRB20G35KT -TSRA BKN070CB
     FM040200 21012KT P6SM VCSH SCT080 BKN120
     FM040500 19009KT P6SM FEW090 SCT120 BKN180
     FM040900 21010KT P6SM FEW110=



000
FTUS45 KBOU 031124
TAFAPA
TAF
KAPA 031124Z 0312/0412 19008KT P6SM SCT120 BKN200
     FM031400 23006KT P6SM BKN110 BKN180
     FM031700 17012KT P6SM SCT120 BKN180
     FM032000 15015G25KT P6SM VCTS SCT080CB BKN100 OVC150
      TEMPO 0321/0401 VRB20G35KT 5SM -TSRA BKN070CB
     FM040200 23010KT P6SM VCSH SCT080 BKN120
     FM040500 19009KT P6SM FEW090 SCT120 BKN180
     FM040900 20010KT P6SM FEW110=



000
FTUS45 KBOU 031124
TAFAPA
TAF
KAPA 031124Z 0312/0412 19008KT P6SM SCT120 BKN200
     FM031400 23006KT P6SM BKN110 BKN180
     FM031700 17012KT P6SM SCT120 BKN180
     FM032000 15015G25KT P6SM VCTS SCT080CB BKN100 OVC150
      TEMPO 0321/0401 VRB20G35KT 5SM -TSRA BKN070CB
     FM040200 23010KT P6SM VCSH SCT080 BKN120
     FM040500 19009KT P6SM FEW090 SCT120 BKN180
     FM040900 20010KT P6SM FEW110=



000
FTUS45 KBOU 031124
TAFBJC
TAF
KBJC 031124Z 0312/0412 VRB04KT P6SM SCT110 BKN200
     FM031700 14009KT P6SM SCT100 BKN160
     FM032100 15012G20KT P6SM VCTS SCT070CB BKN100 OVC150
      TEMPO 0321/0401 VRB20G35KT 5SM TSRA BKN060CB OVC090
     FM040100 30013G18KT P6SM VCSH SCT080 BKN120
     FM040500 26009KT P6SM FEW130 SCT200=



000
FTUS45 KBOU 031124
TAFDEN
TAF
KDEN 031124Z 0312/0418 19010KT P6SM SCT120 BKN200
     FM031400 23008KT P6SM SCT110 BKN180
     FM031700 17012G20KT P6SM SCT120 BKN180
     FM032000 14015G25KT P6SM VCTS SCT080CB BKN100 OVC150
      TEMPO 0321/0401 VRB20G35KT -TSRA BKN070CB
     FM040200 21012KT P6SM VCSH SCT080 BKN120
     FM040500 19009KT P6SM FEW090 SCT120 BKN180
     FM040900 21010KT P6SM FEW110=



000
FTUS45 KBOU 031124
TAFDEN
TAF
KDEN 031124Z 0312/0418 19010KT P6SM SCT120 BKN200
     FM031400 23008KT P6SM SCT110 BKN180
     FM031700 17012G20KT P6SM SCT120 BKN180
     FM032000 14015G25KT P6SM VCTS SCT080CB BKN100 OVC150
      TEMPO 0321/0401 VRB20G35KT -TSRA BKN070CB
     FM040200 21012KT P6SM VCSH SCT080 BKN120
     FM040500 19009KT P6SM FEW090 SCT120 BKN180
     FM040900 21010KT P6SM FEW110=



000
FTUS45 KBOU 031124
TAFBJC
TAF
KBJC 031124Z 0312/0412 VRB04KT P6SM SCT110 BKN200
     FM031700 14009KT P6SM SCT100 BKN160
     FM032100 15012G20KT P6SM VCTS SCT070CB BKN100 OVC150
      TEMPO 0321/0401 VRB20G35KT 5SM TSRA BKN060CB OVC090
     FM040100 30013G18KT P6SM VCSH SCT080 BKN120
     FM040500 26009KT P6SM FEW130 SCT200=



000
FTUS45 KBOU 031124
TAFAPA
TAF
KAPA 031124Z 0312/0412 19008KT P6SM SCT120 BKN200
     FM031400 23006KT P6SM BKN110 BKN180
     FM031700 17012KT P6SM SCT120 BKN180
     FM032000 15015G25KT P6SM VCTS SCT080CB BKN100 OVC150
      TEMPO 0321/0401 VRB20G35KT 5SM -TSRA BKN070CB
     FM040200 23010KT P6SM VCSH SCT080 BKN120
     FM040500 19009KT P6SM FEW090 SCT120 BKN180
     FM040900 20010KT P6SM FEW110=



000
FTUS45 KBOU 030840 AAB
TAFDEN
TAF AMD
KDEN 030840Z 0309/0412 18011KT P6SM BKN120 BKN200
     FM031800 13010KT P6SM SCT120 BKN180
     FM032100 15012G18KT P6SM VCTS SCT080CB BKN110 OVC150
      TEMPO 0321/0401 VRB20G35KT -TSRA BKN070CB
     FM040100 28010G16KT P6SM VCSH SCT080 BKN120
     FM040600 22009KT P6SM FEW140 SCT200=



000
FTUS45 KBOU 030840 AAB
TAFDEN
TAF AMD
KDEN 030840Z 0309/0412 18011KT P6SM BKN120 BKN200
     FM031800 13010KT P6SM SCT120 BKN180
     FM032100 15012G18KT P6SM VCTS SCT080CB BKN110 OVC150
      TEMPO 0321/0401 VRB20G35KT -TSRA BKN070CB
     FM040100 28010G16KT P6SM VCSH SCT080 BKN120
     FM040600 22009KT P6SM FEW140 SCT200=



000
FTUS45 KBOU 030658 AAA
TAFAPA
TAF AMD
KAPA 030658Z 0307/0406 15007KT P6SM BKN120 OVC200
     FM030900 18009KT P6SM BKN120 BKN200
     FM031700 12010KT P6SM SCT120 BKN180
     FM032100 15013G18KT P6SM VCTS SCT070CB BKN100 OVC150
      TEMPO 0321/0401 VRB20G35KT 5SM TSRA BKN060CB OVC100
     FM040100 29010G15KT P6SM VCSH SCT070 BKN120
     FM040500 20008KT P6SM FEW130 SCT200=



000
FTUS45 KBOU 030658 AAA
TAFAPA
TAF AMD
KAPA 030658Z 0307/0406 15007KT P6SM BKN120 OVC200
     FM030900 18009KT P6SM BKN120 BKN200
     FM031700 12010KT P6SM SCT120 BKN180
     FM032100 15013G18KT P6SM VCTS SCT070CB BKN100 OVC150
      TEMPO 0321/0401 VRB20G35KT 5SM TSRA BKN060CB OVC100
     FM040100 29010G15KT P6SM VCSH SCT070 BKN120
     FM040500 20008KT P6SM FEW130 SCT200=



000
FTUS45 KBOU 030658 AAA
TAFAPA
TAF AMD
KAPA 030658Z 0307/0406 15007KT P6SM BKN120 OVC200
     FM030900 18009KT P6SM BKN120 BKN200
     FM031700 12010KT P6SM SCT120 BKN180
     FM032100 15013G18KT P6SM VCTS SCT070CB BKN100 OVC150
      TEMPO 0321/0401 VRB20G35KT 5SM TSRA BKN060CB OVC100
     FM040100 29010G15KT P6SM VCSH SCT070 BKN120
     FM040500 20008KT P6SM FEW130 SCT200=



000
FTUS45 KBOU 030658 AAA
TAFAPA
TAF AMD
KAPA 030658Z 0307/0406 15007KT P6SM BKN120 OVC200
     FM030900 18009KT P6SM BKN120 BKN200
     FM031700 12010KT P6SM SCT120 BKN180
     FM032100 15013G18KT P6SM VCTS SCT070CB BKN100 OVC150
      TEMPO 0321/0401 VRB20G35KT 5SM TSRA BKN060CB OVC100
     FM040100 29010G15KT P6SM VCSH SCT070 BKN120
     FM040500 20008KT P6SM FEW130 SCT200=



000
FTUS45 KBOU 030657 AAA
TAFDEN
TAF AMD
KDEN 030657Z 0307/0412 15007KT P6SM BKN120 OVC200
     FM030900 18009KT P6SM BKN120 BKN200
     FM031800 13010KT P6SM SCT120 BKN180
     FM032100 15012G18KT P6SM VCTS SCT080CB BKN110 OVC150
      TEMPO 0321/0401 VRB20G35KT -TSRA BKN070CB
     FM040100 28010G16KT P6SM VCSH SCT080 BKN120
     FM040600 22009KT P6SM FEW140 SCT200=



000
FTUS45 KBOU 030657 AAA
TAFDEN
TAF AMD
KDEN 030657Z 0307/0412 15007KT P6SM BKN120 OVC200
     FM030900 18009KT P6SM BKN120 BKN200
     FM031800 13010KT P6SM SCT120 BKN180
     FM032100 15012G18KT P6SM VCTS SCT080CB BKN110 OVC150
      TEMPO 0321/0401 VRB20G35KT -TSRA BKN070CB
     FM040100 28010G16KT P6SM VCSH SCT080 BKN120
     FM040600 22009KT P6SM FEW140 SCT200=



000
FTUS45 KBOU 030657 AAA
TAFDEN
TAF AMD
KDEN 030657Z 0307/0412 15007KT P6SM BKN120 OVC200
     FM030900 18009KT P6SM BKN120 BKN200
     FM031800 13010KT P6SM SCT120 BKN180
     FM032100 15012G18KT P6SM VCTS SCT080CB BKN110 OVC150
      TEMPO 0321/0401 VRB20G35KT -TSRA BKN070CB
     FM040100 28010G16KT P6SM VCSH SCT080 BKN120
     FM040600 22009KT P6SM FEW140 SCT200=



000
FTUS45 KBOU 030657 AAA
TAFDEN
TAF AMD
KDEN 030657Z 0307/0412 15007KT P6SM BKN120 OVC200
     FM030900 18009KT P6SM BKN120 BKN200
     FM031800 13010KT P6SM SCT120 BKN180
     FM032100 15012G18KT P6SM VCTS SCT080CB BKN110 OVC150
      TEMPO 0321/0401 VRB20G35KT -TSRA BKN070CB
     FM040100 28010G16KT P6SM VCSH SCT080 BKN120
     FM040600 22009KT P6SM FEW140 SCT200=



000
FTUS45 KBOU 030532
TAFAPA
TAF
KAPA 030532Z 0306/0406 22011KT P6SM FEW080 BKN120 OVC200
     FM030900 18009KT P6SM SCT120 BKN200
     FM031700 12010KT P6SM SCT120 BKN180
     FM032100 15013G18KT P6SM VCTS SCT070CB BKN100 OVC150
      TEMPO 0321/0401 VRB20G35KT 5SM TSRA BKN060CB OVC100
     FM040100 29010G15KT P6SM VCSH SCT070 BKN120
     FM040500 20008KT P6SM FEW130 SCT200=



000
FTUS45 KBOU 030532
TAFDEN
TAF
KDEN 030532Z 0306/0412 23010KT P6SM BKN110 OVC200
     FM030900 18009KT P6SM SCT120 BKN200
     FM031800 13010KT P6SM SCT120 BKN180
     FM032100 15012G18KT P6SM VCTS SCT080CB BKN110 OVC150
      TEMPO 0321/0401 VRB20G35KT -TSRA BKN070CB
     FM040100 28010G16KT P6SM VCSH SCT080 BKN120
     FM040600 22009KT P6SM FEW140 SCT200=



000
FTUS45 KBOU 030532
TAFBJC
TAF
KBJC 030532Z 0306/0406 21010KT P6SM FEW080 SCT120 OVC200
     FM030900 17008KT P6SM SCT110 BKN200
     FM031700 14009KT P6SM SCT100 BKN160
     FM032100 15012G16KT P6SM VCTS SCT070CB BKN100 OVC150
      TEMPO 0321/0401 VRB20G35KT 5SM TSRA BKN060CB OVC090
     FM040100 30013G18KT P6SM VCSH SCT080 BKN120
     FM040500 20008KT P6SM FEW130 SCT200=



000
FTUS45 KBOU 030532
TAFBJC
TAF
KBJC 030532Z 0306/0406 21010KT P6SM FEW080 SCT120 OVC200
     FM030900 17008KT P6SM SCT110 BKN200
     FM031700 14009KT P6SM SCT100 BKN160
     FM032100 15012G16KT P6SM VCTS SCT070CB BKN100 OVC150
      TEMPO 0321/0401 VRB20G35KT 5SM TSRA BKN060CB OVC090
     FM040100 30013G18KT P6SM VCSH SCT080 BKN120
     FM040500 20008KT P6SM FEW130 SCT200=



000
FTUS45 KBOU 030532
TAFAPA
TAF
KAPA 030532Z 0306/0406 22011KT P6SM FEW080 BKN120 OVC200
     FM030900 18009KT P6SM SCT120 BKN200
     FM031700 12010KT P6SM SCT120 BKN180
     FM032100 15013G18KT P6SM VCTS SCT070CB BKN100 OVC150
      TEMPO 0321/0401 VRB20G35KT 5SM TSRA BKN060CB OVC100
     FM040100 29010G15KT P6SM VCSH SCT070 BKN120
     FM040500 20008KT P6SM FEW130 SCT200=



000
FTUS45 KBOU 030532
TAFDEN
TAF
KDEN 030532Z 0306/0412 23010KT P6SM BKN110 OVC200
     FM030900 18009KT P6SM SCT120 BKN200
     FM031800 13010KT P6SM SCT120 BKN180
     FM032100 15012G18KT P6SM VCTS SCT080CB BKN110 OVC150
      TEMPO 0321/0401 VRB20G35KT -TSRA BKN070CB
     FM040100 28010G16KT P6SM VCSH SCT080 BKN120
     FM040600 22009KT P6SM FEW140 SCT200=



000
FTUS45 KBOU 030532
TAFDEN
TAF
KDEN 030532Z 0306/0412 23010KT P6SM BKN110 OVC200
     FM030900 18009KT P6SM SCT120 BKN200
     FM031800 13010KT P6SM SCT120 BKN180
     FM032100 15012G18KT P6SM VCTS SCT080CB BKN110 OVC150
      TEMPO 0321/0401 VRB20G35KT -TSRA BKN070CB
     FM040100 28010G16KT P6SM VCSH SCT080 BKN120
     FM040600 22009KT P6SM FEW140 SCT200=



000
FTUS45 KBOU 030532
TAFBJC
TAF
KBJC 030532Z 0306/0406 21010KT P6SM FEW080 SCT120 OVC200
     FM030900 17008KT P6SM SCT110 BKN200
     FM031700 14009KT P6SM SCT100 BKN160
     FM032100 15012G16KT P6SM VCTS SCT070CB BKN100 OVC150
      TEMPO 0321/0401 VRB20G35KT 5SM TSRA BKN060CB OVC090
     FM040100 30013G18KT P6SM VCSH SCT080 BKN120
     FM040500 20008KT P6SM FEW130 SCT200=



000
FTUS45 KBOU 030532
TAFAPA
TAF
KAPA 030532Z 0306/0406 22011KT P6SM FEW080 BKN120 OVC200
     FM030900 18009KT P6SM SCT120 BKN200
     FM031700 12010KT P6SM SCT120 BKN180
     FM032100 15013G18KT P6SM VCTS SCT070CB BKN100 OVC150
      TEMPO 0321/0401 VRB20G35KT 5SM TSRA BKN060CB OVC100
     FM040100 29010G15KT P6SM VCSH SCT070 BKN120
     FM040500 20008KT P6SM FEW130 SCT200=



000
FTUS45 KBOU 030532
TAFDEN
TAF
KDEN 030532Z 0306/0412 23010KT P6SM BKN110 OVC200
     FM030900 18009KT P6SM SCT120 BKN200
     FM031800 13010KT P6SM SCT120 BKN180
     FM032100 15012G18KT P6SM VCTS SCT080CB BKN110 OVC150
      TEMPO 0321/0401 VRB20G35KT -TSRA BKN070CB
     FM040100 28010G16KT P6SM VCSH SCT080 BKN120
     FM040600 22009KT P6SM FEW140 SCT200=



000
FTUS45 KBOU 030532
TAFBJC
TAF
KBJC 030532Z 0306/0406 21010KT P6SM FEW080 SCT120 OVC200
     FM030900 17008KT P6SM SCT110 BKN200
     FM031700 14009KT P6SM SCT100 BKN160
     FM032100 15012G16KT P6SM VCTS SCT070CB BKN100 OVC150
      TEMPO 0321/0401 VRB20G35KT 5SM TSRA BKN060CB OVC090
     FM040100 30013G18KT P6SM VCSH SCT080 BKN120
     FM040500 20008KT P6SM FEW130 SCT200=



000
FTUS45 KBOU 030532
TAFAPA
TAF
KAPA 030532Z 0306/0406 22011KT P6SM FEW080 BKN120 OVC200
     FM030900 18009KT P6SM SCT120 BKN200
     FM031700 12010KT P6SM SCT120 BKN180
     FM032100 15013G18KT P6SM VCTS SCT070CB BKN100 OVC150
      TEMPO 0321/0401 VRB20G35KT 5SM TSRA BKN060CB OVC100
     FM040100 29010G15KT P6SM VCSH SCT070 BKN120
     FM040500 20008KT P6SM FEW130 SCT200=



000
FTUS45 KBOU 030405 AAB
TAFBJC
TAF AMD
KBJC 030405Z 0304/0324 18012G17KT P6SM SCT080 BKN120 OVC180
     FM031000 14008KT P6SM FEW070 SCT100 BKN150
      TEMPO 0312/0316 -SHRA SCT060 BKN100
     FM031700 08007KT P6SM SCT100 BKN200
     FM032100 16008KT P6SM VCTS SCT080CB BKN120=



000
FTUS45 KBOU 030405 AAB
TAFBJC
TAF AMD
KBJC 030405Z 0304/0324 18012G17KT P6SM SCT080 BKN120 OVC180
     FM031000 14008KT P6SM FEW070 SCT100 BKN150
      TEMPO 0312/0316 -SHRA SCT060 BKN100
     FM031700 08007KT P6SM SCT100 BKN200
     FM032100 16008KT P6SM VCTS SCT080CB BKN120=



000
FTUS45 KBOU 030405 AAB
TAFBJC
TAF AMD
KBJC 030405Z 0304/0324 18012G17KT P6SM SCT080 BKN120 OVC180
     FM031000 14008KT P6SM FEW070 SCT100 BKN150
      TEMPO 0312/0316 -SHRA SCT060 BKN100
     FM031700 08007KT P6SM SCT100 BKN200
     FM032100 16008KT P6SM VCTS SCT080CB BKN120=



000
FTUS45 KBOU 030402 AAB
TAFAPA
TAF AMD
KAPA 030402Z 0304/0324 19014G20KT P6SM FEW080 BKN120 OVC180
     FM030700 18013KT P6SM BKN120 BKN200
     FM031000 17010KT P6SM VCSH SCT100 BKN160
      TEMPO 0312/0316 -SHRA BKN070 OVC100
     FM031700 12008KT P6SM SCT120 BKN200
     FM032200 17010KT P6SM VCTS SCT070CB BKN120=



000
FTUS45 KBOU 030359 AAC
TAFDEN
TAF AMD
KDEN 030359Z 0304/0406 22012KT P6SM BKN100 OVC200
     FM030900 18010KT P6SM FEW120 SCT220
     FM031700 13008KT P6SM SCT120 BKN200
     FM032200 16010KT P6SM VCTS SCT070CB BKN120 PROB30 0322/0402
      VRB18G30KT -TSRA BKN080CB=



000
FTUS45 KBOU 030359 AAC
TAFDEN
TAF AMD
KDEN 030359Z 0304/0406 22012KT P6SM BKN100 OVC200
     FM030900 18010KT P6SM FEW120 SCT220
     FM031700 13008KT P6SM SCT120 BKN200
     FM032200 16010KT P6SM VCTS SCT070CB BKN120 PROB30 0322/0402
      VRB18G30KT -TSRA BKN080CB=



000
FTUS45 KBOU 030359 AAC
TAFDEN
TAF AMD
KDEN 030359Z 0304/0406 22012KT P6SM BKN100 OVC200
     FM030900 18010KT P6SM FEW120 SCT220
     FM031700 13008KT P6SM SCT120 BKN200
     FM032200 16010KT P6SM VCTS SCT070CB BKN120 PROB30 0322/0402
      VRB18G30KT -TSRA BKN080CB=



000
FTUS45 KBOU 030308 AAB
TAFDEN
TAF AMD
KDEN 030308Z 0303/0406 19008KT P6SM SCT120 BKN180
     FM030500 20012KT P6SM SCT120 BKN220
     FM030900 19010KT P6SM FEW120 SCT220
     FM031700 13008KT P6SM SCT120 BKN200
     FM032200 16010KT P6SM VCTS SCT070CB BKN120 PROB30 0322/0402
      VRB18G30KT -TSRA BKN080CB=



000
FTUS45 KBOU 030308 AAB
TAFDEN
TAF AMD
KDEN 030308Z 0303/0406 19008KT P6SM SCT120 BKN180
     FM030500 20012KT P6SM SCT120 BKN220
     FM030900 19010KT P6SM FEW120 SCT220
     FM031700 13008KT P6SM SCT120 BKN200
     FM032200 16010KT P6SM VCTS SCT070CB BKN120 PROB30 0322/0402
      VRB18G30KT -TSRA BKN080CB=



000
FTUS45 KBOU 022348 AAA
TAFAPA
TAF AMD
KAPA 022348Z 0300/0324 16010KT P6SM VCTS SCT080CB OVC150
      TEMPO 0300/0302 VRB18G28KT -TSRA BKN080CB
     FM030200 18010KT P6SM FEW080 BKN120
     FM030500 19010KT P6SM SCT120 BKN220
     FM030900 18010KT P6SM FEW120 SCT220
     FM031800 13008KT P6SM SCT120 BKN200
     FM032200 15010KT P6SM VCTS SCT070CB BKN120=



000
FTUS45 KBOU 022348 AAA
TAFBJC
TAF AMD
KBJC 022348Z 0300/0324 13010KT P6SM SCT070 OVC140
     FM030300 23008KT P6SM SCT080 BKN130
     FM030500 30006KT P6SM FEW090 SCT140 BKN200
     FM031000 29008KT P6SM FEW120 SCT130
     FM031700 08007KT P6SM SCT100 BKN200
     FM032100 14008KT P6SM VCTS SCT080CB BKN120=



000
FTUS45 KBOU 022348 AAA
TAFDEN
TAF AMD
KDEN 022348Z 0300/0406 20012KT P6SM VCTS SCT080CB OVC140
      TEMPO 0300/0301 VRB18G28KT -TSRA BKN080CB
     FM030200 19012KT P6SM FEW080 BKN120
     FM030500 20012KT P6SM SCT120 BKN220
     FM030900 19010KT P6SM FEW120 SCT220
     FM031700 13008KT P6SM SCT120 BKN200
     FM032200 16010KT P6SM VCTS SCT070CB BKN120 PROB30 0322/0402
      VRB18G30KT -TSRA BKN080CB=



000
FTUS45 KBOU 022348 AAA
TAFDEN
TAF AMD
KDEN 022348Z 0300/0406 20012KT P6SM VCTS SCT080CB OVC140
      TEMPO 0300/0301 VRB18G28KT -TSRA BKN080CB
     FM030200 19012KT P6SM FEW080 BKN120
     FM030500 20012KT P6SM SCT120 BKN220
     FM030900 19010KT P6SM FEW120 SCT220
     FM031700 13008KT P6SM SCT120 BKN200
     FM032200 16010KT P6SM VCTS SCT070CB BKN120 PROB30 0322/0402
      VRB18G30KT -TSRA BKN080CB=



000
FTUS45 KBOU 022348 AAA
TAFAPA
TAF AMD
KAPA 022348Z 0300/0324 16010KT P6SM VCTS SCT080CB OVC150
      TEMPO 0300/0302 VRB18G28KT -TSRA BKN080CB
     FM030200 18010KT P6SM FEW080 BKN120
     FM030500 19010KT P6SM SCT120 BKN220
     FM030900 18010KT P6SM FEW120 SCT220
     FM031800 13008KT P6SM SCT120 BKN200
     FM032200 15010KT P6SM VCTS SCT070CB BKN120=



000
FTUS45 KBOU 022348 AAA
TAFBJC
TAF AMD
KBJC 022348Z 0300/0324 13010KT P6SM SCT070 OVC140
     FM030300 23008KT P6SM SCT080 BKN130
     FM030500 30006KT P6SM FEW090 SCT140 BKN200
     FM031000 29008KT P6SM FEW120 SCT130
     FM031700 08007KT P6SM SCT100 BKN200
     FM032100 14008KT P6SM VCTS SCT080CB BKN120=



000
FTUS45 KBOU 022348 AAA
TAFDEN
TAF AMD
KDEN 022348Z 0300/0406 20012KT P6SM VCTS SCT080CB OVC140
      TEMPO 0300/0301 VRB18G28KT -TSRA BKN080CB
     FM030200 19012KT P6SM FEW080 BKN120
     FM030500 20012KT P6SM SCT120 BKN220
     FM030900 19010KT P6SM FEW120 SCT220
     FM031700 13008KT P6SM SCT120 BKN200
     FM032200 16010KT P6SM VCTS SCT070CB BKN120 PROB30 0322/0402
      VRB18G30KT -TSRA BKN080CB=



000
FTUS45 KBOU 022348 AAA
TAFBJC
TAF AMD
KBJC 022348Z 0300/0324 13010KT P6SM SCT070 OVC140
     FM030300 23008KT P6SM SCT080 BKN130
     FM030500 30006KT P6SM FEW090 SCT140 BKN200
     FM031000 29008KT P6SM FEW120 SCT130
     FM031700 08007KT P6SM SCT100 BKN200
     FM032100 14008KT P6SM VCTS SCT080CB BKN120=



000
FTUS45 KBOU 022348 AAA
TAFBJC
TAF AMD
KBJC 022348Z 0300/0324 13010KT P6SM SCT070 OVC140
     FM030300 23008KT P6SM SCT080 BKN130
     FM030500 30006KT P6SM FEW090 SCT140 BKN200
     FM031000 29008KT P6SM FEW120 SCT130
     FM031700 08007KT P6SM SCT100 BKN200
     FM032100 14008KT P6SM VCTS SCT080CB BKN120=



000
FTUS45 KBOU 022348 AAA
TAFAPA
TAF AMD
KAPA 022348Z 0300/0324 16010KT P6SM VCTS SCT080CB OVC150
      TEMPO 0300/0302 VRB18G28KT -TSRA BKN080CB
     FM030200 18010KT P6SM FEW080 BKN120
     FM030500 19010KT P6SM SCT120 BKN220
     FM030900 18010KT P6SM FEW120 SCT220
     FM031800 13008KT P6SM SCT120 BKN200
     FM032200 15010KT P6SM VCTS SCT070CB BKN120=



000
FTUS45 KBOU 022348 AAA
TAFDEN
TAF AMD
KDEN 022348Z 0300/0406 20012KT P6SM VCTS SCT080CB OVC140
      TEMPO 0300/0301 VRB18G28KT -TSRA BKN080CB
     FM030200 19012KT P6SM FEW080 BKN120
     FM030500 20012KT P6SM SCT120 BKN220
     FM030900 19010KT P6SM FEW120 SCT220
     FM031700 13008KT P6SM SCT120 BKN200
     FM032200 16010KT P6SM VCTS SCT070CB BKN120 PROB30 0322/0402
      VRB18G30KT -TSRA BKN080CB=



000
FTUS45 KBOU 022348 AAA
TAFAPA
TAF AMD
KAPA 022348Z 0300/0324 16010KT P6SM VCTS SCT080CB OVC150
      TEMPO 0300/0302 VRB18G28KT -TSRA BKN080CB
     FM030200 18010KT P6SM FEW080 BKN120
     FM030500 19010KT P6SM SCT120 BKN220
     FM030900 18010KT P6SM FEW120 SCT220
     FM031800 13008KT P6SM SCT120 BKN200
     FM032200 15010KT P6SM VCTS SCT070CB BKN120=



000
FTUS45 KBOU 022340
TAFBJC
TAF
KBJC 022340Z 0300/0324 08007KT P6SM VCSH SCT080 BKN120
      TEMPO 0300/0301 07015G25KT -SHRA BKN080
     FM030200 17012KT P6SM SCT080 BKN120
     FM030500 23008KT P6SM FEW090 SCT140 BKN200
     FM031000 28011KT P6SM SCT120 BKN150
     FM031700 24012KT P6SM VCSH SCT090 BKN120=



000
FTUS45 KBOU 022340
TAFDEN
TAF
KDEN 022340Z 0300/0406 20012KT P6SM VCTS SCT080CB OVC140
      TEMPO 0300/0301 VRB18G28KT -TSRA BKN080CB
     FM030200 19012KT P6SM FEW080 BKN120
     FM030500 20012KT P6SM SCT120 BKN220
     FM030900 19010KT P6SM FEW120 SCT220
     FM031700 15008KT P6SM SCT120 BKN200
     FM032200 21010KT P6SM VCTS SCT070CB BKN120 PROB30 0322/0402
      VRB18G30KT -TSRA BKN080CB=



000
FTUS45 KBOU 022340
TAFAPA
TAF
KAPA 022340Z 0300/0324 27012KT P6SM VCTS SCT080CB BKN120
      TEMPO 0300/0301 VRB18G28KT -TSRA BKN080CB
     FM030100 16014KT P6SM SCT080 BKN120
     FM030500 19011KT P6SM FEW090 SCT140 BKN200
     FM030900 17011KT P6SM FEW140 SCT220
     FM031700 15008KT P6SM SCT120 BKN200=



000
FTUS45 KBOU 022340
TAFDEN
TAF
KDEN 022340Z 0300/0406 20012KT P6SM VCTS SCT080CB OVC140
      TEMPO 0300/0301 VRB18G28KT -TSRA BKN080CB
     FM030200 19012KT P6SM FEW080 BKN120
     FM030500 20012KT P6SM SCT120 BKN220
     FM030900 19010KT P6SM FEW120 SCT220
     FM031700 15008KT P6SM SCT120 BKN200
     FM032200 21010KT P6SM VCTS SCT070CB BKN120 PROB30 0322/0402
      VRB18G30KT -TSRA BKN080CB=



000
FTUS45 KBOU 022340
TAFAPA
TAF
KAPA 022340Z 0300/0324 27012KT P6SM VCTS SCT080CB BKN120
      TEMPO 0300/0301 VRB18G28KT -TSRA BKN080CB
     FM030100 16014KT P6SM SCT080 BKN120
     FM030500 19011KT P6SM FEW090 SCT140 BKN200
     FM030900 17011KT P6SM FEW140 SCT220
     FM031700 15008KT P6SM SCT120 BKN200=



000
FTUS45 KBOU 022340
TAFBJC
TAF
KBJC 022340Z 0300/0324 08007KT P6SM VCSH SCT080 BKN120
      TEMPO 0300/0301 07015G25KT -SHRA BKN080
     FM030200 17012KT P6SM SCT080 BKN120
     FM030500 23008KT P6SM FEW090 SCT140 BKN200
     FM031000 28011KT P6SM SCT120 BKN150
     FM031700 24012KT P6SM VCSH SCT090 BKN120=



000
FTUS45 KBOU 022059 AAC
TAFAPA
TAF AMD
KAPA 022059Z 0221/0318 27012KT P6SM VCTS SCT080CB BKN120
      TEMPO 0221/0301 VRB18G28KT -TSRA BKN080CB
     FM030100 16014KT P6SM SCT080 BKN120
     FM030500 19011KT P6SM FEW090 SCT140 BKN200
     FM030900 17011KT P6SM FEW140 SCT220
     FM031700 15008KT P6SM SCT120 BKN200=



000
FTUS45 KBOU 022059 AAC
TAFAPA
TAF AMD
KAPA 022059Z 0221/0318 27012KT P6SM VCTS SCT080CB BKN120
      TEMPO 0221/0301 VRB18G28KT -TSRA BKN080CB
     FM030100 16014KT P6SM SCT080 BKN120
     FM030500 19011KT P6SM FEW090 SCT140 BKN200
     FM030900 17011KT P6SM FEW140 SCT220
     FM031700 15008KT P6SM SCT120 BKN200=



000
FTUS45 KBOU 022058 AAC
TAFDEN
TAF AMD
KDEN 022058Z 0221/0324 18012KT P6SM VCTS SCT080CB BKN120
      TEMPO 0221/0301 VRB18G28KT -TSRA BKN080CB
     FM030200 16014KT P6SM FEW080 BKN120
     FM030500 20012KT P6SM FEW090 SCT140 BKN200
     FM030900 18011KT P6SM FEW140 SCT220
     FM031700 15008KT P6SM SCT120 BKN200
     FM032200 21010KT P6SM VCSH SCT060 BKN090=



000
FTUS45 KBOU 022058 AAC
TAFDEN
TAF AMD
KDEN 022058Z 0221/0324 18012KT P6SM VCTS SCT080CB BKN120
      TEMPO 0221/0301 VRB18G28KT -TSRA BKN080CB
     FM030200 16014KT P6SM FEW080 BKN120
     FM030500 20012KT P6SM FEW090 SCT140 BKN200
     FM030900 18011KT P6SM FEW140 SCT220
     FM031700 15008KT P6SM SCT120 BKN200
     FM032200 21010KT P6SM VCSH SCT060 BKN090=



000
FTUS45 KBOU 022058 AAC
TAFDEN
TAF AMD
KDEN 022058Z 0221/0324 18012KT P6SM VCTS SCT080CB BKN120
      TEMPO 0221/0301 VRB18G28KT -TSRA BKN080CB
     FM030200 16014KT P6SM FEW080 BKN120
     FM030500 20012KT P6SM FEW090 SCT140 BKN200
     FM030900 18011KT P6SM FEW140 SCT220
     FM031700 15008KT P6SM SCT120 BKN200
     FM032200 21010KT P6SM VCSH SCT060 BKN090=



000
FTUS45 KBOU 022058 AAC
TAFDEN
TAF AMD
KDEN 022058Z 0221/0324 18012KT P6SM VCTS SCT080CB BKN120
      TEMPO 0221/0301 VRB18G28KT -TSRA BKN080CB
     FM030200 16014KT P6SM FEW080 BKN120
     FM030500 20012KT P6SM FEW090 SCT140 BKN200
     FM030900 18011KT P6SM FEW140 SCT220
     FM031700 15008KT P6SM SCT120 BKN200
     FM032200 21010KT P6SM VCSH SCT060 BKN090=



000
FTUS45 KBOU 022036 AAB
TAFAPA
TAF AMD
KAPA 022036Z 0221/0318 16012KT P6SM VCTS SCT080CB BKN120
      TEMPO 0222/0302 35018G27KT -SHRA BKN080
     FM030200 16014KT P6SM SCT080 BKN120
     FM030500 19011KT P6SM FEW090 SCT140 BKN200
     FM030900 17011KT P6SM FEW140 SCT220
     FM031700 15008KT P6SM SCT120 BKN200=



000
FTUS45 KBOU 022036 AAB
TAFAPA
TAF AMD
KAPA 022036Z 0221/0318 16012KT P6SM VCTS SCT080CB BKN120
      TEMPO 0222/0302 35018G27KT -SHRA BKN080
     FM030200 16014KT P6SM SCT080 BKN120
     FM030500 19011KT P6SM FEW090 SCT140 BKN200
     FM030900 17011KT P6SM FEW140 SCT220
     FM031700 15008KT P6SM SCT120 BKN200=



000
FTUS45 KBOU 022036 AAB
TAFAPA
TAF AMD
KAPA 022036Z 0221/0318 16012KT P6SM VCTS SCT080CB BKN120
      TEMPO 0222/0302 35018G27KT -SHRA BKN080
     FM030200 16014KT P6SM SCT080 BKN120
     FM030500 19011KT P6SM FEW090 SCT140 BKN200
     FM030900 17011KT P6SM FEW140 SCT220
     FM031700 15008KT P6SM SCT120 BKN200=



000
FTUS45 KBOU 022002 AAB
TAFDEN
TAF AMD
KDEN 022002Z 0220/0324 10012KT P6SM VCTS SCT080CB BKN150
      TEMPO 0220/0221 10012G20KT
     FM022100 14012KT P6SM VCSH SCT080 BKN110
      TEMPO 0222/0302 35018G27KT -SHRA BKN080
     FM030300 16014KT P6SM FEW080 BKN120
     FM030500 20012KT P6SM FEW090 SCT140 BKN200
     FM030900 18011KT P6SM FEW140 SCT220
     FM031700 15008KT P6SM SCT120 BKN200
     FM032200 21010KT P6SM VCSH SCT060 BKN090=



000
FTUS45 KBOU 022002 AAB
TAFDEN
TAF AMD
KDEN 022002Z 0220/0324 10012KT P6SM VCTS SCT080CB BKN150
      TEMPO 0220/0221 10012G20KT
     FM022100 14012KT P6SM VCSH SCT080 BKN110
      TEMPO 0222/0302 35018G27KT -SHRA BKN080
     FM030300 16014KT P6SM FEW080 BKN120
     FM030500 20012KT P6SM FEW090 SCT140 BKN200
     FM030900 18011KT P6SM FEW140 SCT220
     FM031700 15008KT P6SM SCT120 BKN200
     FM032200 21010KT P6SM VCSH SCT060 BKN090=



000
FTUS45 KBOU 021858 AAA
TAFAPA
TAF AMD
KAPA 021858Z 0219/0318 12012KT P6SM FEW080 BKN150
     FM022100 14011KT P6SM VCSH SCT080 BKN120
      TEMPO 0222/0302 35018G27KT -SHRA BKN080
     FM030200 16014KT P6SM SCT080 BKN120
     FM030500 19011KT P6SM FEW090 SCT140 BKN200
     FM030900 17011KT P6SM FEW140 SCT220
     FM031700 15008KT P6SM SCT120 BKN200=



000
FTUS45 KBOU 021858 AAA
TAFAPA
TAF AMD
KAPA 021858Z 0219/0318 12012KT P6SM FEW080 BKN150
     FM022100 14011KT P6SM VCSH SCT080 BKN120
      TEMPO 0222/0302 35018G27KT -SHRA BKN080
     FM030200 16014KT P6SM SCT080 BKN120
     FM030500 19011KT P6SM FEW090 SCT140 BKN200
     FM030900 17011KT P6SM FEW140 SCT220
     FM031700 15008KT P6SM SCT120 BKN200=



000
FTUS45 KBOU 021858 AAA
TAFDEN
TAF AMD
KDEN 021858Z 0219/0324 15012KT P6SM FEW080 BKN150
      TEMPO 0219/0221 15012G22KT
     FM022100 14012KT P6SM VCSH SCT080 BKN110
      TEMPO 0222/0302 35018G27KT -SHRA BKN080
     FM030300 16014KT P6SM FEW080 BKN120
     FM030500 20012KT P6SM FEW090 SCT140 BKN200
     FM030900 18011KT P6SM FEW140 SCT220
     FM031700 15008KT P6SM SCT120 BKN200
     FM032200 21010KT P6SM VCSH SCT060 BKN090=



000
FTUS45 KBOU 021858 AAA
TAFDEN
TAF AMD
KDEN 021858Z 0219/0324 15012KT P6SM FEW080 BKN150
      TEMPO 0219/0221 15012G22KT
     FM022100 14012KT P6SM VCSH SCT080 BKN110
      TEMPO 0222/0302 35018G27KT -SHRA BKN080
     FM030300 16014KT P6SM FEW080 BKN120
     FM030500 20012KT P6SM FEW090 SCT140 BKN200
     FM030900 18011KT P6SM FEW140 SCT220
     FM031700 15008KT P6SM SCT120 BKN200
     FM032200 21010KT P6SM VCSH SCT060 BKN090=



000
FTUS45 KBOU 021858 AAA
TAFDEN
TAF AMD
KDEN 021858Z 0219/0324 15012KT P6SM FEW080 BKN150
      TEMPO 0219/0221 15012G22KT
     FM022100 14012KT P6SM VCSH SCT080 BKN110
      TEMPO 0222/0302 35018G27KT -SHRA BKN080
     FM030300 16014KT P6SM FEW080 BKN120
     FM030500 20012KT P6SM FEW090 SCT140 BKN200
     FM030900 18011KT P6SM FEW140 SCT220
     FM031700 15008KT P6SM SCT120 BKN200
     FM032200 21010KT P6SM VCSH SCT060 BKN090=



000
FTUS45 KBOU 021858 AAA
TAFDEN
TAF AMD
KDEN 021858Z 0219/0324 15012KT P6SM FEW080 BKN150
      TEMPO 0219/0221 15012G22KT
     FM022100 14012KT P6SM VCSH SCT080 BKN110
      TEMPO 0222/0302 35018G27KT -SHRA BKN080
     FM030300 16014KT P6SM FEW080 BKN120
     FM030500 20012KT P6SM FEW090 SCT140 BKN200
     FM030900 18011KT P6SM FEW140 SCT220
     FM031700 15008KT P6SM SCT120 BKN200
     FM032200 21010KT P6SM VCSH SCT060 BKN090=



000
FTUS45 KBOU 021722
TAFDEN
TAF
KDEN 021722Z 0218/0324 07006KT P6SM FEW080 BKN150
     FM022100 14012KT P6SM VCSH SCT080 BKN110
      TEMPO 0222/0302 35018G27KT -SHRA BKN080
     FM030300 16014KT P6SM FEW080 BKN120
     FM030500 20012KT P6SM FEW090 SCT140 BKN200
     FM030900 18011KT P6SM FEW140 SCT220
     FM031700 15008KT P6SM SCT120 BKN200
     FM032200 21010KT P6SM VCSH SCT060 BKN090=



000
FTUS45 KBOU 021722
TAFAPA
TAF
KAPA 021722Z 0218/0318 06006KT P6SM FEW080 BKN150
     FM022100 14011KT P6SM VCSH SCT080 BKN120
      TEMPO 0222/0302 35018G27KT -SHRA BKN080
     FM030200 16014KT P6SM SCT080 BKN120
     FM030500 19011KT P6SM FEW090 SCT140 BKN200
     FM030900 17011KT P6SM FEW140 SCT220
     FM031700 15008KT P6SM SCT120 BKN200=



000
FTUS45 KBOU 021722
TAFBJC
TAF
KBJC 021722Z 0218/0318 VRB06KT P6SM FEW090 BKN150
     FM022100 08007KT P6SM VCSH SCT080 BKN120
      TEMPO 0222/0301 07015G25KT -SHRA BKN080
     FM030200 17012KT P6SM SCT080 BKN120
     FM030500 23008KT P6SM FEW090 SCT140 BKN200
     FM031000 28011KT P6SM SCT120 BKN150
     FM031700 24012KT P6SM VCSH SCT090 BKN120=



000
FTUS45 KBOU 021722
TAFDEN
TAF
KDEN 021722Z 0218/0324 07006KT P6SM FEW080 BKN150
     FM022100 14012KT P6SM VCSH SCT080 BKN110
      TEMPO 0222/0302 35018G27KT -SHRA BKN080
     FM030300 16014KT P6SM FEW080 BKN120
     FM030500 20012KT P6SM FEW090 SCT140 BKN200
     FM030900 18011KT P6SM FEW140 SCT220
     FM031700 15008KT P6SM SCT120 BKN200
     FM032200 21010KT P6SM VCSH SCT060 BKN090=



000
FTUS45 KBOU 021722
TAFBJC
TAF
KBJC 021722Z 0218/0318 VRB06KT P6SM FEW090 BKN150
     FM022100 08007KT P6SM VCSH SCT080 BKN120
      TEMPO 0222/0301 07015G25KT -SHRA BKN080
     FM030200 17012KT P6SM SCT080 BKN120
     FM030500 23008KT P6SM FEW090 SCT140 BKN200
     FM031000 28011KT P6SM SCT120 BKN150
     FM031700 24012KT P6SM VCSH SCT090 BKN120=



000
FTUS45 KBOU 021722
TAFAPA
TAF
KAPA 021722Z 0218/0318 06006KT P6SM FEW080 BKN150
     FM022100 14011KT P6SM VCSH SCT080 BKN120
      TEMPO 0222/0302 35018G27KT -SHRA BKN080
     FM030200 16014KT P6SM SCT080 BKN120
     FM030500 19011KT P6SM FEW090 SCT140 BKN200
     FM030900 17011KT P6SM FEW140 SCT220
     FM031700 15008KT P6SM SCT120 BKN200=



000
FTUS45 KBOU 021440 AAA
TAFAPA
TAF AMD
KAPA 021440Z 0215/0312 VRB05KT P6SM SCT100 BKN180
     FM021800 06006KT P6SM FEW080 BKN150
     FM022100 14011KT P6SM VCSH SCT080 BKN120
      TEMPO 0223/0302 35018G27KT -SHRA BKN080
     FM030200 16014KT P6SM SCT080 BKN120
     FM030500 19011KT P6SM FEW090 SCT140 BKN200=



000
FTUS45 KBOU 021440 AAA
TAFBJC
TAF AMD
KBJC 021440Z 0215/0312 VRB05KT P6SM FEW150 BKN180
     FM021800 08006KT P6SM FEW090 BKN150
     FM022100 08007KT P6SM VCSH SCT080 BKN120
      TEMPO 0222/0301 07015G25KT -SHRA BKN080
     FM030200 17012KT P6SM SCT080 BKN120
     FM030500 23008KT P6SM FEW090 SCT140 BKN200=



000
FTUS45 KBOU 021440 AAA
TAFDEN
TAF AMD
KDEN 021440Z 0215/0318 VRB05KT P6SM FEW100 BKN180
     FM021800 07006KT P6SM FEW080 BKN150
     FM022200 14012KT P6SM VCSH SCT080 BKN110
      TEMPO 0222/0302 35018G27KT -SHRA BKN080
     FM030300 16014KT P6SM FEW080 BKN120
     FM030500 20012KT P6SM FEW090 SCT140 BKN200=



000
FTUS45 KBOU 021132
TAFBJC
TAF
KBJC 021132Z 0212/0312 34004KT P6SM SCT120 BKN200
     FM021500 VRB05KT P6SM FEW150 BKN180
     FM021800 08006KT P6SM FEW090 BKN150
     FM022100 08007KT P6SM VCSH SCT080 BKN120
     FM030200 17012KT P6SM SCT080 BKN120
     FM030500 23008KT P6SM FEW090 SCT140 BKN200=



000
FTUS45 KBOU 021132
TAFDEN
TAF
KDEN 021132Z 0212/0318 25007KT P6SM SCT140 BKN220
     FM021400 31006KT P6SM FEW100 BKN180
     FM021800 07006KT P6SM FEW080 BKN150
     FM022200 14012KT P6SM VCSH SCT080 BKN110
     FM030300 16014KT P6SM FEW080 BKN120
     FM030500 20012KT P6SM FEW090 SCT140 BKN200=



000
FTUS45 KBOU 021132
TAFAPA
TAF
KAPA 021132Z 0212/0312 26008KT P6SM SCT150 BKN220
     FM021400 32005KT P6SM FEW100 BKN180
     FM021800 06006KT P6SM FEW080 BKN150
     FM022100 14011KT P6SM VCSH SCT080 BKN120
     FM030200 16014KT P6SM SCT080 BKN120
     FM030500 19011KT P6SM FEW090 SCT140 BKN200=



000
FTUS45 KBOU 021132
TAFBJC
TAF
KBJC 021132Z 0212/0312 34004KT P6SM SCT120 BKN200
     FM021500 VRB05KT P6SM FEW150 BKN180
     FM021800 08006KT P6SM FEW090 BKN150
     FM022100 08007KT P6SM VCSH SCT080 BKN120
     FM030200 17012KT P6SM SCT080 BKN120
     FM030500 23008KT P6SM FEW090 SCT140 BKN200=



000
FTUS45 KBOU 021132
TAFDEN
TAF
KDEN 021132Z 0212/0318 25007KT P6SM SCT140 BKN220
     FM021400 31006KT P6SM FEW100 BKN180
     FM021800 07006KT P6SM FEW080 BKN150
     FM022200 14012KT P6SM VCSH SCT080 BKN110
     FM030300 16014KT P6SM FEW080 BKN120
     FM030500 20012KT P6SM FEW090 SCT140 BKN200=



000
FTUS45 KBOU 021132
TAFAPA
TAF
KAPA 021132Z 0212/0312 26008KT P6SM SCT150 BKN220
     FM021400 32005KT P6SM FEW100 BKN180
     FM021800 06006KT P6SM FEW080 BKN150
     FM022100 14011KT P6SM VCSH SCT080 BKN120
     FM030200 16014KT P6SM SCT080 BKN120
     FM030500 19011KT P6SM FEW090 SCT140 BKN200=



000
FTUS45 KBOU 021052 AAA
TAFAPA
TAF AMD
KAPA 021052Z 0211/0306 24008KT P6SM SCT150 BKN220
     FM021400 32005KT P6SM FEW100 SCT150
     FM021800 06006KT P6SM FEW080 SCT220
     FM022100 11009KT P6SM VCTS SCT080CB BKN120
     FM030200 16014KT P6SM SCT080 BKN120
     FM030500 19011KT P6SM FEW090 SCT140=



000
FTUS45 KBOU 021052 AAA
TAFAPA
TAF AMD
KAPA 021052Z 0211/0306 24008KT P6SM SCT150 BKN220
     FM021400 32005KT P6SM FEW100 SCT150
     FM021800 06006KT P6SM FEW080 SCT220
     FM022100 11009KT P6SM VCTS SCT080CB BKN120
     FM030200 16014KT P6SM SCT080 BKN120
     FM030500 19011KT P6SM FEW090 SCT140=



000
FTUS45 KBOU 021052 AAB
TAFDEN
TAF AMD
KDEN 021052Z 0211/0312 25009KT P6SM SCT140 BKN220
     FM021400 31006KT P6SM FEW100 SCT150
     FM021800 06006KT P6SM FEW080 SCT220
     FM022200 11010KT P6SM VCTS SCT080CB BKN120
     FM030300 16014KT P6SM SCT080 BKN120
     FM030500 20012KT P6SM FEW090 SCT140=



000
FTUS45 KBOU 021052 AAB
TAFDEN
TAF AMD
KDEN 021052Z 0211/0312 25009KT P6SM SCT140 BKN220
     FM021400 31006KT P6SM FEW100 SCT150
     FM021800 06006KT P6SM FEW080 SCT220
     FM022200 11010KT P6SM VCTS SCT080CB BKN120
     FM030300 16014KT P6SM SCT080 BKN120
     FM030500 20012KT P6SM FEW090 SCT140=



000
FTUS45 KBOU 021052 AAA
TAFBJC
TAF AMD
KBJC 021052Z 0211/0306 32004KT P6SM SCT120 BKN200
     FM021500 VRB05KT P6SM FEW150 SCT220
     FM021800 08006KT P6SM FEW090 SCT220
     FM022100 08007KT P6SM VCTS SCT080CB BKN120
     FM030200 16012KT P6SM SCT080 BKN120
     FM030500 23008KT P6SM FEW090 SCT140=



000
FTUS45 KBOU 020835 AAA
TAFDEN
TAF AMD
KDEN 020835Z 0209/0312 22011KT P6SM FEW150 BKN220
     FM021200 24009KT P6SM FEW140 SCT220
     FM021400 31007KT P6SM FEW100 SCT150
     FM021800 06006KT P6SM FEW080 SCT220
     FM022200 11010KT P6SM VCTS SCT080CB BKN120
     FM030300 16014KT P6SM SCT080 BKN120
     FM030500 20012KT P6SM FEW090 SCT140=



000
FTUS45 KBOU 020835 AAA
TAFDEN
TAF AMD
KDEN 020835Z 0209/0312 22011KT P6SM FEW150 BKN220
     FM021200 24009KT P6SM FEW140 SCT220
     FM021400 31007KT P6SM FEW100 SCT150
     FM021800 06006KT P6SM FEW080 SCT220
     FM022200 11010KT P6SM VCTS SCT080CB BKN120
     FM030300 16014KT P6SM SCT080 BKN120
     FM030500 20012KT P6SM FEW090 SCT140=



000
FTUS45 KBOU 020520
TAFAPA
TAF
KAPA 020520Z 0206/0306 20014KT P6SM SCT150 BKN220
     FM021200 23009KT P6SM FEW140 SCT220
     FM021500 32005KT P6SM FEW100 SCT150
     FM021800 06006KT P6SM FEW080 SCT220
     FM022100 11009KT P6SM VCTS SCT080CB BKN120
     FM030200 16014KT P6SM SCT080 BKN120
     FM030500 19011KT P6SM FEW090 SCT140=



000
FTUS45 KBOU 020520
TAFDEN
TAF
KDEN 020520Z 0206/0312 18015KT P6SM SCT150 BKN220
     FM020800 20012KT P6SM FEW150 BKN220
     FM021200 24009KT P6SM FEW140 SCT220
     FM021400 31007KT P6SM FEW100 SCT150
     FM021800 06006KT P6SM FEW080 SCT220
     FM022200 11010KT P6SM VCTS SCT080CB BKN120
     FM030300 16014KT P6SM SCT080 BKN120
     FM030500 20012KT P6SM FEW090 SCT140=



000
FTUS45 KBOU 020520
TAFDEN
TAF
KDEN 020520Z 0206/0312 18015KT P6SM SCT150 BKN220
     FM020800 20012KT P6SM FEW150 BKN220
     FM021200 24009KT P6SM FEW140 SCT220
     FM021400 31007KT P6SM FEW100 SCT150
     FM021800 06006KT P6SM FEW080 SCT220
     FM022200 11010KT P6SM VCTS SCT080CB BKN120
     FM030300 16014KT P6SM SCT080 BKN120
     FM030500 20012KT P6SM FEW090 SCT140=



000
FTUS45 KBOU 020520
TAFBJC
TAF
KBJC 020520Z 0206/0306 32004KT P6SM SCT120 BKN200
     FM021300 VRB05KT P6SM FEW150 SCT220
     FM021800 08006KT P6SM FEW090 SCT220
     FM022100 08007KT P6SM VCTS SCT080CB BKN120
     FM030200 16012KT P6SM SCT080 BKN120
     FM030500 23008KT P6SM FEW090 SCT140=



000
FTUS45 KBOU 020520
TAFBJC
TAF
KBJC 020520Z 0206/0306 32004KT P6SM SCT120 BKN200
     FM021300 VRB05KT P6SM FEW150 SCT220
     FM021800 08006KT P6SM FEW090 SCT220
     FM022100 08007KT P6SM VCTS SCT080CB BKN120
     FM030200 16012KT P6SM SCT080 BKN120
     FM030500 23008KT P6SM FEW090 SCT140=



000
FTUS45 KBOU 020520
TAFAPA
TAF
KAPA 020520Z 0206/0306 20014KT P6SM SCT150 BKN220
     FM021200 23009KT P6SM FEW140 SCT220
     FM021500 32005KT P6SM FEW100 SCT150
     FM021800 06006KT P6SM FEW080 SCT220
     FM022100 11009KT P6SM VCTS SCT080CB BKN120
     FM030200 16014KT P6SM SCT080 BKN120
     FM030500 19011KT P6SM FEW090 SCT140=



000
FTUS45 KBOU 020520
TAFBJC
TAF
KBJC 020520Z 0206/0306 32004KT P6SM SCT120 BKN200
     FM021300 VRB05KT P6SM FEW150 SCT220
     FM021800 08006KT P6SM FEW090 SCT220
     FM022100 08007KT P6SM VCTS SCT080CB BKN120
     FM030200 16012KT P6SM SCT080 BKN120
     FM030500 23008KT P6SM FEW090 SCT140=



000
FTUS45 KBOU 020520
TAFAPA
TAF
KAPA 020520Z 0206/0306 20014KT P6SM SCT150 BKN220
     FM021200 23009KT P6SM FEW140 SCT220
     FM021500 32005KT P6SM FEW100 SCT150
     FM021800 06006KT P6SM FEW080 SCT220
     FM022100 11009KT P6SM VCTS SCT080CB BKN120
     FM030200 16014KT P6SM SCT080 BKN120
     FM030500 19011KT P6SM FEW090 SCT140=



000
FTUS45 KBOU 020520
TAFDEN
TAF
KDEN 020520Z 0206/0312 18015KT P6SM SCT150 BKN220
     FM020800 20012KT P6SM FEW150 BKN220
     FM021200 24009KT P6SM FEW140 SCT220
     FM021400 31007KT P6SM FEW100 SCT150
     FM021800 06006KT P6SM FEW080 SCT220
     FM022200 11010KT P6SM VCTS SCT080CB BKN120
     FM030300 16014KT P6SM SCT080 BKN120
     FM030500 20012KT P6SM FEW090 SCT140=



000
FTUS45 KBOU 020459 AAC
TAFAPA
TAF AMD
KAPA 020459Z 0205/0224 19014G23KT P6SM SCT100 BKN220
     FM020600 19013KT P6SM FEW150 SCT220
     FM021500 31006KT P6SM FEW100 SCT150
     FM021800 07006KT P6SM FEW080 SCT220
     FM022100 07008KT P6SM VCTS SCT080CB BKN120=



000
FTUS45 KBOU 020459 AAC
TAFAPA
TAF AMD
KAPA 020459Z 0205/0224 19014G23KT P6SM SCT100 BKN220
     FM020600 19013KT P6SM FEW150 SCT220
     FM021500 31006KT P6SM FEW100 SCT150
     FM021800 07006KT P6SM FEW080 SCT220
     FM022100 07008KT P6SM VCTS SCT080CB BKN120=



000
FTUS45 KBOU 020256 AAB
TAFAPA
TAF AMD
KAPA 020256Z 0203/0224 18015KT P6SM SCT100 BKN220
      TEMPO 0203/0205 18018G28KT
     FM020600 20010KT P6SM FEW150 SCT220
     FM021500 31006KT P6SM FEW100 SCT150
     FM021800 07006KT P6SM FEW080 SCT220
     FM022100 07008KT P6SM VCTS SCT080CB BKN120=



000
FTUS45 KBOU 020256 AAB
TAFAPA
TAF AMD
KAPA 020256Z 0203/0224 18015KT P6SM SCT100 BKN220
      TEMPO 0203/0205 18018G28KT
     FM020600 20010KT P6SM FEW150 SCT220
     FM021500 31006KT P6SM FEW100 SCT150
     FM021800 07006KT P6SM FEW080 SCT220
     FM022100 07008KT P6SM VCTS SCT080CB BKN120=



000
FTUS45 KBOU 020254 AAB
TAFDEN
TAF AMD
KDEN 020254Z 0203/0306 18015KT P6SM SCT100 SCT150 BKN220
      TEMPO 0203/0205 18015G25KT
     FM020600 20010KT P6SM FEW150 SCT220
     FM021400 31007KT P6SM FEW100 SCT150
     FM021800 07006KT P6SM FEW080 SCT220
     FM022100 07008KT P6SM VCTS SCT080CB BKN120
     FM030100 16012KT P6SM SCT080 BKN120=



000
FTUS45 KBOU 020254 AAB
TAFDEN
TAF AMD
KDEN 020254Z 0203/0306 18015KT P6SM SCT100 SCT150 BKN220
      TEMPO 0203/0205 18015G25KT
     FM020600 20010KT P6SM FEW150 SCT220
     FM021400 31007KT P6SM FEW100 SCT150
     FM021800 07006KT P6SM FEW080 SCT220
     FM022100 07008KT P6SM VCTS SCT080CB BKN120
     FM030100 16012KT P6SM SCT080 BKN120=



000
FTUS45 KBOU 020159 AAA
TAFAPA
TAF AMD
KAPA 020159Z 0202/0224 18014KT P6SM SCT100 BKN150
      TEMPO 0202/0203 18014G24KT
     FM020600 20010KT P6SM FEW150 SCT220
     FM021500 31006KT P6SM FEW100 SCT150
     FM021800 07006KT P6SM FEW080 SCT220
     FM022100 07008KT P6SM VCTS SCT080CB BKN120=



000
FTUS45 KBOU 020159 AAA
TAFAPA
TAF AMD
KAPA 020159Z 0202/0224 18014KT P6SM SCT100 BKN150
      TEMPO 0202/0203 18014G24KT
     FM020600 20010KT P6SM FEW150 SCT220
     FM021500 31006KT P6SM FEW100 SCT150
     FM021800 07006KT P6SM FEW080 SCT220
     FM022100 07008KT P6SM VCTS SCT080CB BKN120=



000
FTUS45 KBOU 020159 AAA
TAFAPA
TAF AMD
KAPA 020159Z 0202/0224 18014KT P6SM SCT100 BKN150
      TEMPO 0202/0203 18014G24KT
     FM020600 20010KT P6SM FEW150 SCT220
     FM021500 31006KT P6SM FEW100 SCT150
     FM021800 07006KT P6SM FEW080 SCT220
     FM022100 07008KT P6SM VCTS SCT080CB BKN120=



000
FTUS45 KBOU 020159 AAA
TAFAPA
TAF AMD
KAPA 020159Z 0202/0224 18014KT P6SM SCT100 BKN150
      TEMPO 0202/0203 18014G24KT
     FM020600 20010KT P6SM FEW150 SCT220
     FM021500 31006KT P6SM FEW100 SCT150
     FM021800 07006KT P6SM FEW080 SCT220
     FM022100 07008KT P6SM VCTS SCT080CB BKN120=



000
FTUS45 KBOU 020057 AAA
TAFDEN
TAF AMD
KDEN 020057Z 0201/0306 15014KT P6SM SCT100 SCT150 BKN220
      TEMPO 0201/0202 15014G22KT
     FM020600 20010KT P6SM FEW150 SCT220
     FM021400 31007KT P6SM FEW100 SCT150
     FM021800 07006KT P6SM FEW080 SCT220
     FM022100 07008KT P6SM VCTS SCT080CB BKN120
     FM030100 16012KT P6SM SCT080 BKN120=



000
FTUS45 KBOU 020057 AAA
TAFDEN
TAF AMD
KDEN 020057Z 0201/0306 15014KT P6SM SCT100 SCT150 BKN220
      TEMPO 0201/0202 15014G22KT
     FM020600 20010KT P6SM FEW150 SCT220
     FM021400 31007KT P6SM FEW100 SCT150
     FM021800 07006KT P6SM FEW080 SCT220
     FM022100 07008KT P6SM VCTS SCT080CB BKN120
     FM030100 16012KT P6SM SCT080 BKN120=



000
FTUS45 KBOU 020057 AAA
TAFDEN
TAF AMD
KDEN 020057Z 0201/0306 15014KT P6SM SCT100 SCT150 BKN220
      TEMPO 0201/0202 15014G22KT
     FM020600 20010KT P6SM FEW150 SCT220
     FM021400 31007KT P6SM FEW100 SCT150
     FM021800 07006KT P6SM FEW080 SCT220
     FM022100 07008KT P6SM VCTS SCT080CB BKN120
     FM030100 16012KT P6SM SCT080 BKN120=



000
FTUS45 KBOU 012321
TAFAPA
TAF
KAPA 012321Z 0200/0224 04007KT P6SM SCT100 BKN150
     FM020100 15012KT P6SM VCSH SCT100 BKN150
     FM020600 20010KT P6SM FEW150 SCT220
     FM021500 31006KT P6SM FEW100 SCT150
     FM021800 07006KT P6SM FEW080 SCT220
     FM022100 07008KT P6SM VCTS SCT080CB BKN120=



000
FTUS45 KBOU 012321
TAFAPA
TAF
KAPA 012321Z 0200/0224 04007KT P6SM SCT100 BKN150
     FM020100 15012KT P6SM VCSH SCT100 BKN150
     FM020600 20010KT P6SM FEW150 SCT220
     FM021500 31006KT P6SM FEW100 SCT150
     FM021800 07006KT P6SM FEW080 SCT220
     FM022100 07008KT P6SM VCTS SCT080CB BKN120=



000
FTUS45 KBOU 012321
TAFBJC
TAF
KBJC 012321Z 0200/0224 32007KT P6SM SCT100 BKN150
     FM020300 29006KT P6SM SCT100 SCT150
     FM021300 VRB05KT P6SM FEW150
     FM021800 08006KT P6SM FEW090 SCT220
     FM022100 08007KT P6SM VCTS SCT080CB BKN120=



000
FTUS45 KBOU 012321
TAFAPA
TAF
KAPA 012321Z 0200/0224 04007KT P6SM SCT100 BKN150
     FM020100 15012KT P6SM VCSH SCT100 BKN150
     FM020600 20010KT P6SM FEW150 SCT220
     FM021500 31006KT P6SM FEW100 SCT150
     FM021800 07006KT P6SM FEW080 SCT220
     FM022100 07008KT P6SM VCTS SCT080CB BKN120=



000
FTUS45 KBOU 012321
TAFBJC
TAF
KBJC 012321Z 0200/0224 32007KT P6SM SCT100 BKN150
     FM020300 29006KT P6SM SCT100 SCT150
     FM021300 VRB05KT P6SM FEW150
     FM021800 08006KT P6SM FEW090 SCT220
     FM022100 08007KT P6SM VCTS SCT080CB BKN120=



000
FTUS45 KBOU 012321
TAFBJC
TAF
KBJC 012321Z 0200/0224 32007KT P6SM SCT100 BKN150
     FM020300 29006KT P6SM SCT100 SCT150
     FM021300 VRB05KT P6SM FEW150
     FM021800 08006KT P6SM FEW090 SCT220
     FM022100 08007KT P6SM VCTS SCT080CB BKN120=



000
FTUS45 KBOU 012321
TAFDEN
TAF
KDEN 012321Z 0200/0306 03008KT P6SM SCT100 BKN150
     FM020100 15012KT P6SM SCT100 SCT150
     FM020600 20010KT P6SM FEW150 SCT220
     FM021400 31007KT P6SM FEW100 SCT150
     FM021800 07006KT P6SM FEW080 SCT220
     FM022100 07008KT P6SM VCTS SCT080CB BKN120
     FM030100 16012KT P6SM SCT080 BKN120=



000
FTUS45 KBOU 012321
TAFDEN
TAF
KDEN 012321Z 0200/0306 03008KT P6SM SCT100 BKN150
     FM020100 15012KT P6SM SCT100 SCT150
     FM020600 20010KT P6SM FEW150 SCT220
     FM021400 31007KT P6SM FEW100 SCT150
     FM021800 07006KT P6SM FEW080 SCT220
     FM022100 07008KT P6SM VCTS SCT080CB BKN120
     FM030100 16012KT P6SM SCT080 BKN120=



000
FTUS45 KBOU 012321
TAFDEN
TAF
KDEN 012321Z 0200/0306 03008KT P6SM SCT100 BKN150
     FM020100 15012KT P6SM SCT100 SCT150
     FM020600 20010KT P6SM FEW150 SCT220
     FM021400 31007KT P6SM FEW100 SCT150
     FM021800 07006KT P6SM FEW080 SCT220
     FM022100 07008KT P6SM VCTS SCT080CB BKN120
     FM030100 16012KT P6SM SCT080 BKN120=



000
FTUS45 KBOU 012321
TAFAPA
TAF
KAPA 012321Z 0200/0224 04007KT P6SM SCT100 BKN150
     FM020100 15012KT P6SM VCSH SCT100 BKN150
     FM020600 20010KT P6SM FEW150 SCT220
     FM021500 31006KT P6SM FEW100 SCT150
     FM021800 07006KT P6SM FEW080 SCT220
     FM022100 07008KT P6SM VCTS SCT080CB BKN120=



000
FTUS45 KBOU 012321
TAFBJC
TAF
KBJC 012321Z 0200/0224 32007KT P6SM SCT100 BKN150
     FM020300 29006KT P6SM SCT100 SCT150
     FM021300 VRB05KT P6SM FEW150
     FM021800 08006KT P6SM FEW090 SCT220
     FM022100 08007KT P6SM VCTS SCT080CB BKN120=



000
FTUS45 KBOU 012321
TAFDEN
TAF
KDEN 012321Z 0200/0306 03008KT P6SM SCT100 BKN150
     FM020100 15012KT P6SM SCT100 SCT150
     FM020600 20010KT P6SM FEW150 SCT220
     FM021400 31007KT P6SM FEW100 SCT150
     FM021800 07006KT P6SM FEW080 SCT220
     FM022100 07008KT P6SM VCTS SCT080CB BKN120
     FM030100 16012KT P6SM SCT080 BKN120=



000
FTUS45 KBOU 012155 AAB
TAFDEN
TAF AMD
KDEN 012155Z 0122/0224 04008KT P6SM FEW090 SCT150
     FM012300 09010KT P6SM SCT090 BKN140
     FM020100 15012G18KT P6SM VCSH FEW090 BKN130
     FM020400 20010KT P6SM FEW140 SCT220
     FM021500 31008KT P6SM FEW090 SCT150
     FM021800 07006KT P6SM FEW080 SCT220
     FM022100 VRB05KT P6SM SCT080 BKN120=



000
FTUS45 KBOU 012155 AAB
TAFDEN
TAF AMD
KDEN 012155Z 0122/0224 04008KT P6SM FEW090 SCT150
     FM012300 09010KT P6SM SCT090 BKN140
     FM020100 15012G18KT P6SM VCSH FEW090 BKN130
     FM020400 20010KT P6SM FEW140 SCT220
     FM021500 31008KT P6SM FEW090 SCT150
     FM021800 07006KT P6SM FEW080 SCT220
     FM022100 VRB05KT P6SM SCT080 BKN120=



000
FTUS45 KBOU 012016 AAA
TAFDEN
TAF AMD
KDEN 012016Z 0120/0224 12006KT P6SM FEW090 SCT150
     FM012300 09010KT P6SM SCT090 BKN140
     FM020100 15012G18KT P6SM VCSH FEW090 BKN130
     FM020400 20010KT P6SM FEW140 SCT220
     FM021500 31008KT P6SM FEW090 SCT150
     FM021800 07006KT P6SM FEW080 SCT220
     FM022100 VRB05KT P6SM SCT080 BKN120=



000
FTUS45 KBOU 012016 AAA
TAFDEN
TAF AMD
KDEN 012016Z 0120/0224 12006KT P6SM FEW090 SCT150
     FM012300 09010KT P6SM SCT090 BKN140
     FM020100 15012G18KT P6SM VCSH FEW090 BKN130
     FM020400 20010KT P6SM FEW140 SCT220
     FM021500 31008KT P6SM FEW090 SCT150
     FM021800 07006KT P6SM FEW080 SCT220
     FM022100 VRB05KT P6SM SCT080 BKN120=



000
FTUS45 KBOU 011726
TAFAPA
TAF
KAPA 011726Z 0118/0218 VRB05KT P6SM FEW100 SCT200
     FM011900 04007KT P6SM FEW090 SCT150
     FM012300 15010KT P6SM SCT090 BKN140
     FM020100 15012G18KT P6SM VCSH FEW090 BKN130
     FM020400 20010KT P6SM FEW140 SCT220
     FM021500 31008KT P6SM FEW090 SCT150=



000
FTUS45 KBOU 011726
TAFDEN
TAF
KDEN 011726Z 0118/0224 VRB05KT P6SM FEW100 SCT200
     FM012000 04007KT P6SM FEW090 SCT150
     FM012300 09010KT P6SM SCT090 BKN140
     FM020100 15012G18KT P6SM VCSH FEW090 BKN130
     FM020400 20010KT P6SM FEW140 SCT220
     FM021500 31008KT P6SM FEW090 SCT150
     FM021800 07006KT P6SM FEW080 SCT220
     FM022100 VRB05KT P6SM SCT080 BKN120=



000
FTUS45 KBOU 011726
TAFBJC
TAF
KBJC 011726Z 0118/0218 VRB05KT P6SM FEW100 SCT200
     FM012100 08010KT P6SM SCT090 BKN150
     FM012300 05012G18KT P6SM SCT080 BKN120
     FM020300 17009KT P6SM FEW090 SCT150
     FM020500 VRB06KT P6SM FEW150
     FM021200 27006KT P6SM FEW150
     FM021500 35008KT P6SM FEW090 SCT220=



000
FTUS45 KBOU 011726
TAFDEN
TAF
KDEN 011726Z 0118/0224 VRB05KT P6SM FEW100 SCT200
     FM012000 04007KT P6SM FEW090 SCT150
     FM012300 09010KT P6SM SCT090 BKN140
     FM020100 15012G18KT P6SM VCSH FEW090 BKN130
     FM020400 20010KT P6SM FEW140 SCT220
     FM021500 31008KT P6SM FEW090 SCT150
     FM021800 07006KT P6SM FEW080 SCT220
     FM022100 VRB05KT P6SM SCT080 BKN120=



000
FTUS45 KBOU 011726
TAFBJC
TAF
KBJC 011726Z 0118/0218 VRB05KT P6SM FEW100 SCT200
     FM012100 08010KT P6SM SCT090 BKN150
     FM012300 05012G18KT P6SM SCT080 BKN120
     FM020300 17009KT P6SM FEW090 SCT150
     FM020500 VRB06KT P6SM FEW150
     FM021200 27006KT P6SM FEW150
     FM021500 35008KT P6SM FEW090 SCT220=



000
FTUS45 KBOU 011726
TAFAPA
TAF
KAPA 011726Z 0118/0218 VRB05KT P6SM FEW100 SCT200
     FM011900 04007KT P6SM FEW090 SCT150
     FM012300 15010KT P6SM SCT090 BKN140
     FM020100 15012G18KT P6SM VCSH FEW090 BKN130
     FM020400 20010KT P6SM FEW140 SCT220
     FM021500 31008KT P6SM FEW090 SCT150=



000
FTUS45 KBOU 011726
TAFBJC
TAF
KBJC 011726Z 0118/0218 VRB05KT P6SM FEW100 SCT200
     FM012100 08010KT P6SM SCT090 BKN150
     FM012300 05012G18KT P6SM SCT080 BKN120
     FM020300 17009KT P6SM FEW090 SCT150
     FM020500 VRB06KT P6SM FEW150
     FM021200 27006KT P6SM FEW150
     FM021500 35008KT P6SM FEW090 SCT220=



000
FTUS45 KBOU 011431 AAA
TAFBJC
TAF AMD
KBJC 011431Z 0115/0212 VRB05KT P6SM FEW140 SCT220
     FM011700 03007KT P6SM FEW100 SCT200
     FM012100 08010KT P6SM SCT090 BKN150
     FM020200 15009KT P6SM FEW090 SCT150
     FM020500 23006KT P6SM FEW150=



000
FTUS45 KBOU 011431 AAA
TAFAPA
TAF AMD
KAPA 011431Z 0115/0212 24006KT P6SM FEW200
     FM011600 34006KT P6SM FEW100 SCT200
     FM011900 04007KT P6SM FEW090 SCT150
     FM012300 15010KT P6SM SCT090 BKN140
     FM020200 18010KT P6SM FEW090 SCT140=



000
FTUS45 KBOU 011431 AAA
TAFDEN
TAF AMD
KDEN 011431Z 0115/0218 26006KT P6SM FEW140 FEW200
     FM011700 33007KT P6SM FEW100 SCT200
     FM012000 04007KT P6SM FEW090 SCT150
     FM012300 09010KT P6SM SCT090 BKN140
     FM020100 15012KT P6SM FEW090 BKN130
     FM020500 20010KT P6SM FEW140=



000
FTUS45 KBOU 011431 AAA
TAFDEN
TAF AMD
KDEN 011431Z 0115/0218 26006KT P6SM FEW140 FEW200
     FM011700 33007KT P6SM FEW100 SCT200
     FM012000 04007KT P6SM FEW090 SCT150
     FM012300 09010KT P6SM SCT090 BKN140
     FM020100 15012KT P6SM FEW090 BKN130
     FM020500 20010KT P6SM FEW140=



000
FTUS45 KBOU 011431 AAA
TAFAPA
TAF AMD
KAPA 011431Z 0115/0212 24006KT P6SM FEW200
     FM011600 34006KT P6SM FEW100 SCT200
     FM011900 04007KT P6SM FEW090 SCT150
     FM012300 15010KT P6SM SCT090 BKN140
     FM020200 18010KT P6SM FEW090 SCT140=



000
FTUS45 KBOU 011431 AAA
TAFBJC
TAF AMD
KBJC 011431Z 0115/0212 VRB05KT P6SM FEW140 SCT220
     FM011700 03007KT P6SM FEW100 SCT200
     FM012100 08010KT P6SM SCT090 BKN150
     FM020200 15009KT P6SM FEW090 SCT150
     FM020500 23006KT P6SM FEW150=



000
FTUS45 KBOU 011431 AAA
TAFAPA
TAF AMD
KAPA 011431Z 0115/0212 24006KT P6SM FEW200
     FM011600 34006KT P6SM FEW100 SCT200
     FM011900 04007KT P6SM FEW090 SCT150
     FM012300 15010KT P6SM SCT090 BKN140
     FM020200 18010KT P6SM FEW090 SCT140=



000
FTUS45 KBOU 011431 AAA
TAFDEN
TAF AMD
KDEN 011431Z 0115/0218 26006KT P6SM FEW140 FEW200
     FM011700 33007KT P6SM FEW100 SCT200
     FM012000 04007KT P6SM FEW090 SCT150
     FM012300 09010KT P6SM SCT090 BKN140
     FM020100 15012KT P6SM FEW090 BKN130
     FM020500 20010KT P6SM FEW140=



000
FTUS45 KBOU 011431 AAA
TAFBJC
TAF AMD
KBJC 011431Z 0115/0212 VRB05KT P6SM FEW140 SCT220
     FM011700 03007KT P6SM FEW100 SCT200
     FM012100 08010KT P6SM SCT090 BKN150
     FM020200 15009KT P6SM FEW090 SCT150
     FM020500 23006KT P6SM FEW150=



000
FTUS45 KBOU 011431 AAA
TAFDEN
TAF AMD
KDEN 011431Z 0115/0218 26006KT P6SM FEW140 FEW200
     FM011700 33007KT P6SM FEW100 SCT200
     FM012000 04007KT P6SM FEW090 SCT150
     FM012300 09010KT P6SM SCT090 BKN140
     FM020100 15012KT P6SM FEW090 BKN130
     FM020500 20010KT P6SM FEW140=



000
FTUS45 KBOU 011431 AAA
TAFBJC
TAF AMD
KBJC 011431Z 0115/0212 VRB05KT P6SM FEW140 SCT220
     FM011700 03007KT P6SM FEW100 SCT200
     FM012100 08010KT P6SM SCT090 BKN150
     FM020200 15009KT P6SM FEW090 SCT150
     FM020500 23006KT P6SM FEW150=



000
FTUS45 KBOU 011431 AAA
TAFAPA
TAF AMD
KAPA 011431Z 0115/0212 24006KT P6SM FEW200
     FM011600 34006KT P6SM FEW100 SCT200
     FM011900 04007KT P6SM FEW090 SCT150
     FM012300 15010KT P6SM SCT090 BKN140
     FM020200 18010KT P6SM FEW090 SCT140=



000
FTUS45 KBOU 011122
TAFDEN
TAF
KDEN 011122Z 0112/0218 18010KT P6SM FEW140 SCT220
     FM011400 24006KT P6SM FEW140 FEW200
     FM011700 33007KT P6SM FEW100 SCT200
     FM012000 04007KT P6SM FEW090 SCT150
     FM012300 09010KT P6SM SCT090 BKN140
     FM020100 15012KT P6SM FEW090 BKN130
     FM020500 20010KT P6SM FEW140=



000
FTUS45 KBOU 011122
TAFBJC
TAF
KBJC 011122Z 0112/0212 34005KT P6SM FEW140 SCT220
     FM011700 03007KT P6SM FEW100 SCT200
     FM012100 08010KT P6SM SCT090 BKN150
     FM020200 15009KT P6SM FEW090 SCT150
     FM020500 23006KT P6SM FEW150=



000
FTUS45 KBOU 011122
TAFAPA
TAF
KAPA 011122Z 0112/0212 18008KT P6SM FEW140 SCT220
     FM011400 24006KT P6SM FEW200
     FM011600 34006KT P6SM FEW100 SCT200
     FM011900 04007KT P6SM FEW090 SCT150
     FM012300 15010KT P6SM SCT090 BKN140
     FM020200 18010KT P6SM FEW090 SCT140=



000
FTUS45 KBOU 011122
TAFBJC
TAF
KBJC 011122Z 0112/0212 34005KT P6SM FEW140 SCT220
     FM011700 03007KT P6SM FEW100 SCT200
     FM012100 08010KT P6SM SCT090 BKN150
     FM020200 15009KT P6SM FEW090 SCT150
     FM020500 23006KT P6SM FEW150=



000
FTUS45 KBOU 011122
TAFDEN
TAF
KDEN 011122Z 0112/0218 18010KT P6SM FEW140 SCT220
     FM011400 24006KT P6SM FEW140 FEW200
     FM011700 33007KT P6SM FEW100 SCT200
     FM012000 04007KT P6SM FEW090 SCT150
     FM012300 09010KT P6SM SCT090 BKN140
     FM020100 15012KT P6SM FEW090 BKN130
     FM020500 20010KT P6SM FEW140=



000
FTUS45 KBOU 011122
TAFBJC
TAF
KBJC 011122Z 0112/0212 34005KT P6SM FEW140 SCT220
     FM011700 03007KT P6SM FEW100 SCT200
     FM012100 08010KT P6SM SCT090 BKN150
     FM020200 15009KT P6SM FEW090 SCT150
     FM020500 23006KT P6SM FEW150=



000
FTUS45 KBOU 011122
TAFDEN
TAF
KDEN 011122Z 0112/0218 18010KT P6SM FEW140 SCT220
     FM011400 24006KT P6SM FEW140 FEW200
     FM011700 33007KT P6SM FEW100 SCT200
     FM012000 04007KT P6SM FEW090 SCT150
     FM012300 09010KT P6SM SCT090 BKN140
     FM020100 15012KT P6SM FEW090 BKN130
     FM020500 20010KT P6SM FEW140=



000
FTUS45 KBOU 011122
TAFAPA
TAF
KAPA 011122Z 0112/0212 18008KT P6SM FEW140 SCT220
     FM011400 24006KT P6SM FEW200
     FM011600 34006KT P6SM FEW100 SCT200
     FM011900 04007KT P6SM FEW090 SCT150
     FM012300 15010KT P6SM SCT090 BKN140
     FM020200 18010KT P6SM FEW090 SCT140=



000
FTUS45 KBOU 011122
TAFAPA
TAF
KAPA 011122Z 0112/0212 18008KT P6SM FEW140 SCT220
     FM011400 24006KT P6SM FEW200
     FM011600 34006KT P6SM FEW100 SCT200
     FM011900 04007KT P6SM FEW090 SCT150
     FM012300 15010KT P6SM SCT090 BKN140
     FM020200 18010KT P6SM FEW090 SCT140=



000
FTUS45 KBOU 011122
TAFBJC
TAF
KBJC 011122Z 0112/0212 34005KT P6SM FEW140 SCT220
     FM011700 03007KT P6SM FEW100 SCT200
     FM012100 08010KT P6SM SCT090 BKN150
     FM020200 15009KT P6SM FEW090 SCT150
     FM020500 23006KT P6SM FEW150=



000
FTUS45 KBOU 011122
TAFAPA
TAF
KAPA 011122Z 0112/0212 18008KT P6SM FEW140 SCT220
     FM011400 24006KT P6SM FEW200
     FM011600 34006KT P6SM FEW100 SCT200
     FM011900 04007KT P6SM FEW090 SCT150
     FM012300 15010KT P6SM SCT090 BKN140
     FM020200 18010KT P6SM FEW090 SCT140=



000
FTUS45 KBOU 011122
TAFDEN
TAF
KDEN 011122Z 0112/0218 18010KT P6SM FEW140 SCT220
     FM011400 24006KT P6SM FEW140 FEW200
     FM011700 33007KT P6SM FEW100 SCT200
     FM012000 04007KT P6SM FEW090 SCT150
     FM012300 09010KT P6SM SCT090 BKN140
     FM020100 15012KT P6SM FEW090 BKN130
     FM020500 20010KT P6SM FEW140=



000
FTUS45 KBOU 010807 AAB
TAFDEN
TAF AMD
KDEN 010807Z 0108/0212 17011KT P6SM FEW140
     FM011400 24006KT P6SM FEW200
     FM011700 VRB05KT P6SM FEW100 SCT200
     FM012000 11011KT P6SM SCT090 BKN150
     FM020200 15009KT P6SM FEW090 SCT150
     FM020600 20010KT P6SM FEW140=



000
FTUS45 KBOU 010807 AAB
TAFDEN
TAF AMD
KDEN 010807Z 0108/0212 17011KT P6SM FEW140
     FM011400 24006KT P6SM FEW200
     FM011700 VRB05KT P6SM FEW100 SCT200
     FM012000 11011KT P6SM SCT090 BKN150
     FM020200 15009KT P6SM FEW090 SCT150
     FM020600 20010KT P6SM FEW140=



000
FTUS45 KBOU 010706 AAA
TAFDEN
TAF AMD
KDEN 010706Z 0107/0212 17011KT P6SM FEW140
     FM010800 20011KT P6SM FEW140 SCT220
     FM011400 24006KT P6SM FEW200
     FM011700 VRB05KT P6SM FEW100 SCT200
     FM012000 11011KT P6SM SCT090 BKN150
     FM020200 15009KT P6SM FEW090 SCT150
     FM020600 20010KT P6SM FEW140=



000
FTUS45 KBOU 010706 AAA
TAFDEN
TAF AMD
KDEN 010706Z 0107/0212 17011KT P6SM FEW140
     FM010800 20011KT P6SM FEW140 SCT220
     FM011400 24006KT P6SM FEW200
     FM011700 VRB05KT P6SM FEW100 SCT200
     FM012000 11011KT P6SM SCT090 BKN150
     FM020200 15009KT P6SM FEW090 SCT150
     FM020600 20010KT P6SM FEW140=



000
FTUS45 KBOU 010530
TAFDEN
TAF
KDEN 010530Z 0106/0212 17011KT P6SM FEW140
     FM010700 20011KT P6SM FEW140 SCT220
     FM011400 24006KT P6SM FEW200
     FM011700 VRB05KT P6SM FEW100 SCT200
     FM012000 11011KT P6SM SCT090 BKN150
     FM020200 15009KT P6SM FEW090 SCT150
     FM020600 20010KT P6SM FEW140=



000
FTUS45 KBOU 010530
TAFBJC
TAF
KBJC 010530Z 0106/0206 16005KT P6SM SCT140
     FM010700 22006KT P6SM FEW140 SCT220
     FM011200 VRB05KT P6SM FEW200
     FM011700 07009KT P6SM FEW100 SCT200
     FM012100 11011KT P6SM SCT090 BKN150
     FM020200 15009KT P6SM FEW090 SCT150=



000
FTUS45 KBOU 010530
TAFAPA
TAF
KAPA 010530Z 0106/0206 18009KT P6SM FEW140 SCT220
     FM011300 24006KT P6SM FEW200
     FM011600 VRB05KT P6SM FEW100 SCT200
     FM012000 08011KT P6SM SCT090 BKN150
     FM020200 14009KT P6SM FEW090 SCT150=



000
FTUS45 KBOU 010530
TAFAPA
TAF
KAPA 010530Z 0106/0206 18009KT P6SM FEW140 SCT220
     FM011300 24006KT P6SM FEW200
     FM011600 VRB05KT P6SM FEW100 SCT200
     FM012000 08011KT P6SM SCT090 BKN150
     FM020200 14009KT P6SM FEW090 SCT150=



000
FTUS45 KBOU 010530
TAFDEN
TAF
KDEN 010530Z 0106/0212 17011KT P6SM FEW140
     FM010700 20011KT P6SM FEW140 SCT220
     FM011400 24006KT P6SM FEW200
     FM011700 VRB05KT P6SM FEW100 SCT200
     FM012000 11011KT P6SM SCT090 BKN150
     FM020200 15009KT P6SM FEW090 SCT150
     FM020600 20010KT P6SM FEW140=



000
FTUS45 KBOU 010530
TAFDEN
TAF
KDEN 010530Z 0106/0212 17011KT P6SM FEW140
     FM010700 20011KT P6SM FEW140 SCT220
     FM011400 24006KT P6SM FEW200
     FM011700 VRB05KT P6SM FEW100 SCT200
     FM012000 11011KT P6SM SCT090 BKN150
     FM020200 15009KT P6SM FEW090 SCT150
     FM020600 20010KT P6SM FEW140=



000
FTUS45 KBOU 010530
TAFAPA
TAF
KAPA 010530Z 0106/0206 18009KT P6SM FEW140 SCT220
     FM011300 24006KT P6SM FEW200
     FM011600 VRB05KT P6SM FEW100 SCT200
     FM012000 08011KT P6SM SCT090 BKN150
     FM020200 14009KT P6SM FEW090 SCT150=



000
FTUS45 KBOU 010530
TAFBJC
TAF
KBJC 010530Z 0106/0206 16005KT P6SM SCT140
     FM010700 22006KT P6SM FEW140 SCT220
     FM011200 VRB05KT P6SM FEW200
     FM011700 07009KT P6SM FEW100 SCT200
     FM012100 11011KT P6SM SCT090 BKN150
     FM020200 15009KT P6SM FEW090 SCT150=



000
FTUS45 KBOU 010530
TAFBJC
TAF
KBJC 010530Z 0106/0206 16005KT P6SM SCT140
     FM010700 22006KT P6SM FEW140 SCT220
     FM011200 VRB05KT P6SM FEW200
     FM011700 07009KT P6SM FEW100 SCT200
     FM012100 11011KT P6SM SCT090 BKN150
     FM020200 15009KT P6SM FEW090 SCT150=



000
FTUS45 KBOU 010208 AAA
TAFDEN
TAF AMD
KDEN 010208Z 0102/0206 19011KT P6SM SCT090 SCT140
     FM010500 21011KT P6SM SCT140
     FM011400 24006KT P6SM FEW200
     FM012200 06006KT P6SM SCT090 BKN150
     FM020200 15006KT P6SM FEW090 SCT150=



000
FTUS45 KBOU 312334 RRA
TAFDEN
TAF
KDEN 312334Z 0100/0206 15013KT P6SM SCT090 BKN140
     FM010100 18011KT P6SM SCT090 SCT140
     FM010500 21011KT P6SM SCT140
     FM011400 24006KT P6SM FEW200
     FM012200 06006KT P6SM SCT090 BKN150
     FM020200 15006KT P6SM FEW090 SCT150=



000
FTUS45 KBOU 312334 RRA
TAFDEN
TAF
KDEN 312334Z 0100/0206 15013KT P6SM SCT090 BKN140
     FM010100 18011KT P6SM SCT090 SCT140
     FM010500 21011KT P6SM SCT140
     FM011400 24006KT P6SM FEW200
     FM012200 06006KT P6SM SCT090 BKN150
     FM020200 15006KT P6SM FEW090 SCT150=



000
FTUS45 KBOU 312334 RRA
TAFDEN
TAF
KDEN 312334Z 0100/0206 15013KT P6SM SCT090 BKN140
     FM010100 18011KT P6SM SCT090 SCT140
     FM010500 21011KT P6SM SCT140
     FM011400 24006KT P6SM FEW200
     FM012200 06006KT P6SM SCT090 BKN150
     FM020200 15006KT P6SM FEW090 SCT150=



000
FTUS45 KBOU 312334 RRA
TAFDEN
TAF
KDEN 312334Z 0100/0206 15013KT P6SM SCT090 BKN140
     FM010100 18011KT P6SM SCT090 SCT140
     FM010500 21011KT P6SM SCT140
     FM011400 24006KT P6SM FEW200
     FM012200 06006KT P6SM SCT090 BKN150
     FM020200 15006KT P6SM FEW090 SCT150=



000
FTUS45 KBOU 312324 CCA
TAFDEN
TAF COR
KDEN 312324Z 0100/0206 15013KT P6SM SCT090 BKN140
     FM010100 18011KT P6SM SCT090 SCT140
     FM010500 21011KT P6SM SCT140
     FM011400 24006KT P6SM FEW200
     FM012200 06006KT P6SM SCT090 BKN150
     FM020200 15006KT P6SM FEW090 SCT150=



000
FTUS45 KBOU 312324 CCA
TAFDEN
TAF COR
KDEN 312324Z 0100/0206 15013KT P6SM SCT090 BKN140
     FM010100 18011KT P6SM SCT090 SCT140
     FM010500 21011KT P6SM SCT140
     FM011400 24006KT P6SM FEW200
     FM012200 06006KT P6SM SCT090 BKN150
     FM020200 15006KT P6SM FEW090 SCT150=



000
FTUS45 KBOU 312324 CCA
TAFDEN
TAF COR
KDEN 312324Z 0100/0206 15013KT P6SM SCT090 BKN140
     FM010100 18011KT P6SM SCT090 SCT140
     FM010500 21011KT P6SM SCT140
     FM011400 24006KT P6SM FEW200
     FM012200 06006KT P6SM SCT090 BKN150
     FM020200 15006KT P6SM FEW090 SCT150=



000
FTUS45 KBOU 312324 CCA
TAFDEN
TAF COR
KDEN 312324Z 0100/0206 15013KT P6SM SCT090 BKN140
     FM010100 18011KT P6SM SCT090 SCT140
     FM010500 21011KT P6SM SCT140
     FM011400 24006KT P6SM FEW200
     FM012200 06006KT P6SM SCT090 BKN150
     FM020200 15006KT P6SM FEW090 SCT150=



000
FTUS45 KBOU 312321
TAFAPA
TAF
KAPA 312321Z 0100/0124 21007KT P6SM SCT090 BKN140
     FM010400 18010KT P6SM SCT140
     FM011400 VRB05KT P6SM FEW200
     FM012200 06006KT P6SM SCT090 BKN150=



000
FTUS45 KBOU 312321
TAFBJC
TAF
KBJC 312321Z 0100/0124 18007KT P6SM SCT080 BKN140
     FM010400 24007KT P6SM SCT140
     FM011200 VRB06KT P6SM FEW180
     FM011700 08006KT P6SM FEW150 SCT220=



000
FTUS45 KBOU 312321
TAFDEN
TAF
KDEN 312321Z 0100/0206 15013KT P6SM SCT090 BKN140
     FM010100 18011KT P6SM SCT090 SCT140
     FM010500 21011KT P6SM SCT140
     FM011400 24006KT P6SM FEW200
     FM012200 06006KT P6SM SCT090 BKN150
     FM020200 15006KT P6SM FEW090 SCT150=



000
FTUS45 KBOU 312321
TAFAPA
TAF
KAPA 312321Z 0100/0124 21007KT P6SM SCT090 BKN140
     FM010400 18010KT P6SM SCT140
     FM011400 VRB05KT P6SM FEW200
     FM012200 06006KT P6SM SCT090 BKN150=



000
FTUS45 KBOU 312321
TAFDEN
TAF
KDEN 312321Z 0100/0206 15013KT P6SM SCT090 BKN140
     FM010100 18011KT P6SM SCT090 SCT140
     FM010500 21011KT P6SM SCT140
     FM011400 24006KT P6SM FEW200
     FM012200 06006KT P6SM SCT090 BKN150
     FM020200 15006KT P6SM FEW090 SCT150=



000
FTUS45 KBOU 312321
TAFBJC
TAF
KBJC 312321Z 0100/0124 18007KT P6SM SCT080 BKN140
     FM010400 24007KT P6SM SCT140
     FM011200 VRB06KT P6SM FEW180
     FM011700 08006KT P6SM FEW150 SCT220=



000
FTUS45 KBOU 312321
TAFAPA
TAF
KAPA 312321Z 0100/0124 21007KT P6SM SCT090 BKN140
     FM010400 18010KT P6SM SCT140
     FM011400 VRB05KT P6SM FEW200
     FM012200 06006KT P6SM SCT090 BKN150=



000
FTUS45 KBOU 312321
TAFDEN
TAF
KDEN 312321Z 0100/0206 15013KT P6SM SCT090 BKN140
     FM010100 18011KT P6SM SCT090 SCT140
     FM010500 21011KT P6SM SCT140
     FM011400 24006KT P6SM FEW200
     FM012200 06006KT P6SM SCT090 BKN150
     FM020200 15006KT P6SM FEW090 SCT150=



000
FTUS45 KBOU 312321
TAFBJC
TAF
KBJC 312321Z 0100/0124 18007KT P6SM SCT080 BKN140
     FM010400 24007KT P6SM SCT140
     FM011200 VRB06KT P6SM FEW180
     FM011700 08006KT P6SM FEW150 SCT220=



000
FTUS45 KBOU 312239 AAB
TAFAPA
TAF AMD
KAPA 312239Z 3123/0118 19013KT P6SM VCSH SCT080 BKN130
     FM010400 19010KT P6SM FEW090 SCT120
     FM011000 18008KT P6SM SCT150
     FM011400 VRB05KT P6SM FEW090 FEW200=



000
FTUS45 KBOU 312239 AAB
TAFAPA
TAF AMD
KAPA 312239Z 3123/0118 19013KT P6SM VCSH SCT080 BKN130
     FM010400 19010KT P6SM FEW090 SCT120
     FM011000 18008KT P6SM SCT150
     FM011400 VRB05KT P6SM FEW090 FEW200=



000
FTUS45 KBOU 312239 AAB
TAFAPA
TAF AMD
KAPA 312239Z 3123/0118 19013KT P6SM VCSH SCT080 BKN130
     FM010400 19010KT P6SM FEW090 SCT120
     FM011000 18008KT P6SM SCT150
     FM011400 VRB05KT P6SM FEW090 FEW200=



000
FTUS45 KBOU 312239 AAB
TAFAPA
TAF AMD
KAPA 312239Z 3123/0118 19013KT P6SM VCSH SCT080 BKN130
     FM010400 19010KT P6SM FEW090 SCT120
     FM011000 18008KT P6SM SCT150
     FM011400 VRB05KT P6SM FEW090 FEW200=



000
FTUS45 KBOU 312104 AAA
TAFBJC
TAF AMD
KBJC 312104Z 3121/0118 12008KT P6SM VCTS SCT080CB BKN120
      TEMPO 3123/0101 16012G20KT 5SM -TSRA SCT060CB BKN090
     FM010400 24007KT P6SM FEW090 SCT120
     FM011200 VRB06KT P6SM FEW180
     FM011600 08008KT P6SM FEW150 SCT220=



000
FTUS45 KBOU 312104 AAA
TAFBJC
TAF AMD
KBJC 312104Z 3121/0118 12008KT P6SM VCTS SCT080CB BKN120
      TEMPO 3123/0101 16012G20KT 5SM -TSRA SCT060CB BKN090
     FM010400 24007KT P6SM FEW090 SCT120
     FM011200 VRB06KT P6SM FEW180
     FM011600 08008KT P6SM FEW150 SCT220=



000
FTUS45 KBOU 312103 AAA
TAFAPA
TAF AMD
KAPA 312103Z 3121/0118 14013KT P6SM VCSH SCT080 BKN130
     FM010400 19010KT P6SM FEW090 SCT120
     FM011000 18008KT P6SM SCT150
     FM011400 VRB05KT P6SM FEW090 FEW200=



000
FTUS45 KBOU 312103 AAA
TAFAPA
TAF AMD
KAPA 312103Z 3121/0118 14013KT P6SM VCSH SCT080 BKN130
     FM010400 19010KT P6SM FEW090 SCT120
     FM011000 18008KT P6SM SCT150
     FM011400 VRB05KT P6SM FEW090 FEW200=



000
FTUS45 KBOU 312102 AAB
TAFDEN
TAF AMD
KDEN 312102Z 3121/0124 15010G18KT P6SM VCSH SCT090 BKN120
     FM010200 17012KT P6SM SCT060 BKN090
     FM010400 21011KT P6SM FEW070 SCT100
     FM011000 18008KT P6SM SCT150
     FM011400 VRB05KT P6SM FEW090 FEW200
     FM012200 06006KT P6SM SCT090 BKN150=



000
FTUS45 KBOU 312102 AAB
TAFDEN
TAF AMD
KDEN 312102Z 3121/0124 15010G18KT P6SM VCSH SCT090 BKN120
     FM010200 17012KT P6SM SCT060 BKN090
     FM010400 21011KT P6SM FEW070 SCT100
     FM011000 18008KT P6SM SCT150
     FM011400 VRB05KT P6SM FEW090 FEW200
     FM012200 06006KT P6SM SCT090 BKN150=



    US Dept of Commerce
    National Oceanic and Atmospheric Administration
    National Weather Service
    1325 East West Highway
    Silver Spring, MD 20910
    Page Author: NWS Internet Services Team
Disclaimer
Information Quality
Credits
Glossary
Privacy Policy
Freedom of Information Act (FOIA)
About Us
Career Opportunities